Flight Track Log - Related Links

Times and Time Zones

All times are in EDT time to prevent confusion due to time zone crossing. See the AFL150 flight status page for this flight to view local times or setup timezone preferences in your user account.

Time Position Orientation Groundspeed Altitude Reporting Facility
EDT Latitude Longitude Course Direction KTS MPH feet Rate Location/Type
Mon 06:13:39 AM 55.9780 37.4580 75° East 181 208 1,400  Level FlightAware ADS-B
Mon 06:14:09 AM 55.9830 37.5020 79° East 180 207 2,600 2,036 Climbing FlightAware ADS-B
Mon 06:14:35 AM 55.9890 37.5370 73° East 175 201 3,300 1,560 Climbing FlightAware ADS-B
Mon 06:14:59 AM 55.9940 37.5710 75° East 178 205 3,900 1,111 Climbing FlightAware ADS-B
Mon 06:15:29 AM 56.0020 37.6190 73° East 212 244 4,300 900 Climbing FlightAware ADS-B
Mon 06:15:39 AM 56.0040 37.6350 77° East 222 255 4,500 1,200 Climbing FlightAware ADS-B
Mon 06:16:09 AM 56.0130 37.6940 75° East 258 297 5,100 1,467 Climbing FlightAware ADS-B
Mon 06:16:24 AM 56.0200 37.7240 67° East 260 299 5,600 2,160 Climbing FlightAware ADS-B
Mon 06:16:34 AM 56.0280 37.7380 44° Northeast 258 297 6,000 2,640 Climbing FlightAware ADS-B
Mon 06:16:49 AM 56.0450 37.7490 20° North 257 296 6,700 2,609 Climbing FlightAware ADS-B
Mon 06:17:20 AM 56.0810 37.7400 352° North 261 300 8,000 2,400 Climbing FlightAware ADS-B
Mon 06:17:44 AM 56.1090 37.7230 341° North 271 312 8,900 2,308 Climbing FlightAware ADS-B
Mon 06:17:59 AM 56.1210 37.6990 312° West 282 325 9,500 2,400 Climbing FlightAware ADS-B
Mon 06:18:14 AM 56.1280 37.6630 289° West 292 336 10,100 1,527 Climbing FlightAware ADS-B
Mon 06:18:54 AM 56.1440 37.5640 286° West 328 377 10,900 1,125 Climbing FlightAware ADS-B
Mon 06:19:34 AM 56.1610 37.4530 285° West 366 421 11,600 1,300 Climbing FlightAware ADS-B
Mon 06:19:54 AM 56.1700 37.3960 286° West 375 432 12,200 2,065 Climbing FlightAware ADS-B
Mon 06:21:07 AM 56.2020 37.1820 285° West 390 449 14,800 2,341 Climbing FlightAware ADS-B
Mon 06:21:57 AM 56.2260 37.0250 285° West 397 457 17,000 2,047 Climbing FlightAware ADS-B
Mon 06:22:32 AM 56.2430 36.9080 285° West 408 470 17,700 1,662 Climbing FlightAware ADS-B
Mon 06:23:02 AM 56.2580 36.8060 285° West 411 473 18,800 1,882 Climbing FlightAware ADS-B
Mon 06:24:14 AM 56.2940 36.5600 285° West 425 489 20,900 1,768 Climbing FlightAware ADS-B
Mon 06:24:54 AM 56.3140 36.4210 285° West 431 496 22,100 1,624 Climbing FlightAware ADS-B
Mon 06:25:39 AM 56.3370 36.2650 285° West 439 505 23,200 1,341 Climbing FlightAware ADS-B
Mon 06:26:19 AM 56.3570 36.1190 284° West 449 517 24,000 1,271 Climbing FlightAware ADS-B
Mon 06:27:04 AM 56.3800 35.9580 285° West 457 526 25,000 1,341 Climbing FlightAware ADS-B
Mon 06:27:44 AM 56.4000 35.8110 284° West 460 529 25,900 1,271 Climbing FlightAware ADS-B
Mon 06:28:29 AM 56.4250 35.6400 285° West 468 539 26,800 1,200 Climbing FlightAware ADS-B
Mon 06:29:09 AM 56.4730 35.5100 304° West 467 537 27,600 1,120 Climbing FlightAware ADS-B
Mon 06:29:44 AM 56.5350 35.4370 327° Northwest 466 536 28,200 1,040 Climbing FlightAware ADS-B
Mon 06:30:24 AM 56.6170 35.4000 346° North 469 540 28,900 847 Climbing FlightAware ADS-B
Mon 06:31:09 AM 56.7160 35.3620 348° North 479 551 29,400 1,059 Climbing FlightAware ADS-B
Mon 06:31:49 AM 56.8020 35.3290 348° North 472 543 30,400 1,765 Climbing FlightAware ADS-B
Mon 06:32:34 AM 56.8930 35.2940 348° North 454 522 31,900 1,976 Climbing FlightAware ADS-B
Mon 06:33:14 AM 56.9760 35.2620 348° North 438 504 33,200 1,326 Climbing FlightAware ADS-B
Mon 06:34:09 AM 57.0830 35.2210 348° North 437 503 34,000 533 Climbing FlightAware ADS-B
Mon 06:34:44 AM 57.1530 35.1940 348° North 441 507 34,000  Level FlightAware ADS-B
Mon 06:35:29 AM 57.2440 35.1580 348° North 439 505 34,000  Level FlightAware ADS-B
Mon 06:36:09 AM 57.3200 35.1280 348° North 439 505 34,000  Level FlightAware ADS-B
Mon 06:36:44 AM 57.3900 35.1010 348° North 437 503 34,000  Level FlightAware ADS-B
Mon 06:37:40 AM 57.5010 35.0570 348° North 437 503 34,000  Level FlightAware ADS-B
Mon 06:38:26 AM 57.5870 35.0230 348° North 437 503 34,000  Level FlightAware ADS-B
Mon 06:39:04 AM 57.6670 34.9810 344° North 439 505 34,000  Level FlightAware ADS-B
Mon 06:39:49 AM 57.7490 34.9100 335° Northwest 441 507 34,000  Level FlightAware ADS-B
Mon 06:40:29 AM 57.8190 34.8250 327° Northwest 443 510 34,000  Level FlightAware ADS-B
Mon 06:41:14 AM 57.8920 34.7250 324° Northwest 439 505 34,000  Level FlightAware ADS-B
Mon 06:41:49 AM 57.9490 34.6460 324° Northwest 437 503 34,000  Level FlightAware ADS-B
Mon 06:42:34 AM 58.0210 34.5460 324° Northwest 436 502 34,000  Level FlightAware ADS-B
Mon 06:43:14 AM 58.0870 34.4530 323° Northwest 436 502 34,000  Level FlightAware ADS-B
Mon 06:43:54 AM 58.1510 34.3640 324° Northwest 432 497 34,000  Level FlightAware ADS-B
Mon 06:44:39 AM 58.2190 34.2610 321° Northwest 431 496 34,000  Level FlightAware ADS-B
Mon 06:45:19 AM 58.2830 34.1620 321° Northwest 425 489 34,000  Level FlightAware ADS-B
Mon 06:46:04 AM 58.3520 34.0570 321° Northwest 423 487 34,000  Level FlightAware ADS-B
Mon 06:47:01 AM 58.4250 33.9440 321° Northwest 420 483 34,000  Level FlightAware ADS-B
Mon 06:47:43 AM 58.4820 33.8570 321° Northwest 412 474 34,000  Level FlightAware ADS-B
Mon 06:48:36 AM 58.5610 33.7340 321° Northwest 406 467 34,000  Level FlightAware ADS-B
Mon 06:49:25 AM 58.6220 33.6390 321° Northwest 406 467 34,000  Level FlightAware ADS-B
Mon 06:50:00 AM 58.6660 33.5710 321° Northwest 406 467 34,000  Level FlightAware ADS-B
Mon 06:50:48 AM 58.7250 33.4790 321° Northwest 406 467 34,000  Level FlightAware ADS-B
Mon 06:51:24 AM 58.7700 33.4090 321° Northwest 406 467 34,000  Level FlightAware ADS-B
Mon 06:52:12 AM 58.8290 33.3160 321° Northwest 406 467 34,000  Level FlightAware ADS-B
Mon 06:52:48 AM 58.8740 33.2460 321° Northwest 406 467 34,000  Level FlightAware ADS-B
Mon 06:53:37 AM 58.9350 33.1500 321° Northwest 406 467 34,000  Level FlightAware ADS-B
Mon 06:54:14 AM 58.9810 33.0780 321° Northwest 406 467 34,000  Level FlightAware ADS-B
Mon 06:55:14 AM 59.0550 32.9610 321° Northwest 406 467 34,000  Level FlightAware ADS-B
Mon 06:55:50 AM 59.1000 32.8910 321° Northwest 406 467 34,000  Level FlightAware ADS-B
Mon 06:56:27 AM 59.1460 32.8180 321° Northwest 406 467 34,000 1,500 Level FlightAware ADS-B
Mon 06:57:10 AM 59.2730 32.4050 301° West 401 461 36,000 938 Climbing FlightAware ADS-B
Mon 06:58:35 AM 59.3720 32.2060 314° West 398 458 36,000  Level FlightAware ADS-B
Mon 06:59:16 AM 59.4220 32.0980 312° West 399 459 36,000  Level FlightAware ADS-B
Mon 06:59:53 AM 59.4600 31.9830 303° West 403 464 36,000  Level FlightAware ADS-B
Mon 07:00:48 AM 59.4990 31.8230 296° West 409 471 36,000  Level FlightAware ADS-B
Mon 07:01:32 AM 59.5360 31.6540 293° West 407 468 36,000  Level FlightAware ADS-B
Mon 07:02:16 AM 59.5690 31.5000 293° West 408 470 36,000  Level FlightAware ADS-B
Mon 07:03:20 AM 59.6050 31.3330 293° West 409 471 36,000  Level FlightAware ADS-B
Mon 07:04:04 AM 59.6470 31.1360 293° West 407 468 36,000  Level FlightAware ADS-B
Mon 07:05:09 AM 59.6630 30.8560 277° West 434 499 36,000  Level FlightAware ADS-B
Mon 07:05:54 AM 59.6590 30.6770 268° West 435 501 36,000  Level FlightAware ADS-B
Mon 07:06:34 AM 59.6560 30.5310 268° West 435 501 36,000  Level FlightAware ADS-B
Mon 07:07:19 AM 59.6530 30.3420 268° West 436 502 36,000  Level FlightAware ADS-B
Mon 07:08:00 AM 59.6500 30.1750 268° West 437 503 36,000  Level FlightAware ADS-B
Mon 07:08:56 AM 59.6450 29.9590 267° West 439 505 36,000  Level FlightAware ADS-B
Mon 07:09:41 AM 59.6410 29.7800 268° West 439 505 36,000  Level FlightAware ADS-B
Mon 07:10:22 AM 59.6430 29.6240 272° West 425 489 36,000  Level FlightAware ADS-B
Mon 07:11:17 AM 59.6670 29.4050 282° West 424 488 36,000  Level FlightAware ADS-B
Mon 07:12:03 AM 59.6850 29.2380 282° West 423 487 36,000  Level FlightAware ADS-B
Mon 07:12:43 AM 59.7010 29.0840 282° West 423 487 36,000  Level FlightAware ADS-B
Mon 07:13:23 AM 59.7170 28.9350 282° West 422 486 36,000  Level FlightAware ADS-B
Mon 07:13:58 AM 59.7300 28.8060 281° West 423 487 36,000  Level FlightAware ADS-B
Mon 07:14:39 AM 59.7460 28.6450 281° West 424 488 36,000  Level FlightAware ADS-B
Mon 07:15:19 AM 59.7620 28.4930 282° West 423 487 36,000  Level FlightAware ADS-B
Mon 07:16:05 AM 59.7790 28.3210 281° West 421 484 36,000  Level FlightAware ADS-B
Mon 07:16:50 AM 59.7950 28.1520 281° West 409 471 36,000  Level FlightAware ADS-B
Mon 07:17:24 AM 59.8050 28.0530 281° West 405 466 36,000  Level FlightAware ADS-B
Mon 07:18:14 AM 59.8200 27.8960 281° West 405 466 36,000  Level FlightAware ADS-B
Mon 07:18:52 AM 59.8370 27.7080 280° West 403 464 36,000  Level FlightAware ADS-B
Mon 07:19:37 AM 59.8530 27.5390 281° West 401 461 36,000  Level FlightAware ADS-B
Mon 07:19:57 AM 59.8590 27.4750 281° West 401 461 36,000  Level FlightAware ADS-B
Mon 07:20:36 AM 59.8720 27.3280 280° West 401 461 36,000  Level FlightAware ADS-B
Mon 07:21:16 AM 59.8850 27.1800 280° West 401 461 36,000  Level FlightAware ADS-B
Mon 07:21:56 AM 59.8970 27.0390 280° West 400 460 36,000  Level FlightAware ADS-B
Mon 07:22:24 AM 59.9070 26.9310 281° West 400 460 36,000  Level FlightAware ADS-B
Mon 07:23:20 AM 59.9240 26.7320 280° West 401 461 36,000  Level FlightAware ADS-B
Mon 07:24:06 AM 59.9370 26.5760 280° West 401 461 36,000  Level FlightAware ADS-B
Mon 07:24:46 AM 59.9500 26.4230 280° West 401 461 36,000  Level FlightAware ADS-B
Mon 07:25:32 AM 59.9740 26.2600 286° West 393 452 36,000  Level FlightAware ADS-B
Mon 07:26:12 AM 60.0050 26.1290 295° West 389 448 36,000  Level FlightAware ADS-B
Mon 07:26:57 AM 60.0410 25.9850 297° West 386 444 36,000  Level FlightAware ADS-B
Mon 07:27:47 AM 60.0800 25.8280 297° West 385 443 36,000  Level FlightAware ADS-B
Mon 07:28:33 AM 60.1170 25.6790 297° West 385 443 36,000  Level FlightAware ADS-B
Mon 07:28:58 AM 60.1350 25.6040 296° West 386 444 36,000  Level FlightAware ADS-B
Mon 07:29:44 AM 60.1710 25.4570 296° West 387 445 36,000  Level FlightAware ADS-B
Mon 07:30:25 AM 60.2030 25.3280 297° West 389 448 36,000  Level FlightAware ADS-B
Mon 07:31:00 AM 60.2320 25.2070 296° West 391 450 36,000  Level FlightAware ADS-B
Mon 07:31:41 AM 60.2640 25.0730 296° West 391 450 36,000  Level FlightAware ADS-B
Mon 07:32:26 AM 60.2980 24.9330 296° West 391 450 36,000  Level FlightAware ADS-B
Mon 07:32:56 AM 60.3210 24.8340 295° West 392 451 36,000  Level FlightAware ADS-B
Mon 07:33:41 AM 60.3580 24.6780 296° West 394 453 36,000  Level FlightAware ADS-B
Mon 07:34:21 AM 60.3890 24.5460 295° West 395 455 36,000  Level FlightAware ADS-B
Mon 07:35:01 AM 60.4210 24.4110 296° West 395 455 36,000  Level FlightAware ADS-B
Mon 07:35:42 AM 60.4530 24.2730 295° West 395 455 36,000  Level FlightAware ADS-B
Mon 07:36:22 AM 60.4860 24.1430 297° West 396 456 36,000  Level FlightAware ADS-B
Mon 07:37:03 AM 60.5220 24.0090 299° West 396 456 36,000  Level FlightAware ADS-B
Mon 07:37:46 AM 60.5590 23.8700 298° West 394 453 36,000  Level FlightAware ADS-B
Mon 07:38:28 AM 60.5950 23.7300 298° West 395 455 36,000  Level FlightAware ADS-B
Mon 07:39:08 AM 60.6300 23.5990 299° West 395 455 36,000  Level FlightAware ADS-B
Mon 07:39:49 AM 60.6640 23.4660 298° West 395 455 36,000  Level FlightAware ADS-B
Mon 07:40:34 AM 60.7020 23.3170 298° West 397 457 36,000  Level FlightAware ADS-B
Mon 07:41:15 AM 60.7370 23.1800 298° West 398 458 36,000  Level FlightAware ADS-B
Mon 07:41:59 AM 60.7760 23.0290 298° West 397 457 36,000  Level FlightAware ADS-B
Mon 07:42:39 AM 60.8100 22.8950 298° West 396 456 36,000  Level FlightAware ADS-B
Mon 07:43:24 AM 60.8470 22.7460 297° West 400 460 36,000  Level FlightAware ADS-B
Mon 07:44:04 AM 60.8820 22.6070 297° West 408 470 36,000  Level FlightAware ADS-B
Mon 07:44:48 AM 60.9200 22.4540 297° West 410 472 36,000  Level FlightAware ADS-B
Mon 07:45:31 AM 60.9580 22.3040 298° West 411 473 36,000  Level FlightAware ADS-B
Mon 07:46:09 AM 60.9960 22.1780 302° West 413 475 36,000  Level FlightAware ADS-B
Mon 07:46:57 AM 61.0460 22.0190 303° West 414 476 36,000  Level FlightAware ADS-B
Mon 07:47:36 AM 61.0850 21.8900 302° West 415 478 36,000  Level FlightAware ADS-B
Mon 07:48:18 AM 61.1270 21.7510 302° West 417 480 36,000  Level FlightAware ADS-B
Mon 07:49:01 AM 61.1710 21.6050 302° West 419 482 36,000  Level FlightAware ADS-B
Mon 07:49:42 AM 61.2120 21.4660 302° West 420 483 36,000  Level FlightAware ADS-B
Mon 07:50:24 AM 61.2550 21.3210 302° West 422 486 36,000  Level FlightAware ADS-B
Mon 07:51:07 AM 61.2990 21.1720 302° West 423 487 36,000  Level FlightAware ADS-B
Mon 07:51:46 AM 61.3390 21.0380 302° West 422 486 36,000  Level FlightAware ADS-B
Mon 07:52:29 AM 61.3830 20.8850 301° West 421 484 36,000  Level FlightAware ADS-B
Mon 07:53:14 AM 61.4270 20.7320 301° West 421 484 36,000  Level FlightAware ADS-B
Mon 07:53:47 AM 61.4600 20.6180 301° West 421 484 36,000  Level FlightAware ADS-B
Mon 07:54:30 AM 61.5040 20.4670 301° West 422 486 36,000  Level FlightAware ADS-B
Mon 07:55:11 AM 61.5450 20.3220 301° West 422 486 36,000  Level FlightAware ADS-B
Mon 07:55:59 AM 61.5920 20.1530 300° West 420 483 36,000  Level FlightAware ADS-B
Mon 07:56:45 AM 61.6360 19.9960 301° West 419 482 36,000  Level FlightAware ADS-B
Mon 07:57:26 AM 61.6770 19.8500 301° West 420 483 36,000  Level FlightAware ADS-B
Mon 07:58:01 AM 61.7100 19.7300 300° West 419 482 36,000  Level FlightAware ADS-B
Mon 07:58:42 AM 61.7500 19.5850 300° West 419 482 36,000  Level FlightAware ADS-B
Mon 07:59:28 AM 61.7900 19.4330 299° West 416 479 36,000  Level FlightAware ADS-B
Mon 08:00:13 AM 61.8280 19.2710 296° West 414 476 36,000  Level FlightAware ADS-B
Mon 08:00:43 AM 61.8510 19.1490 292° West 411 473 36,000  Level FlightAware ADS-B
Mon 08:01:23 AM 61.8770 19.0090 292° West 413 475 36,000  Level FlightAware ADS-B
Mon 08:02:14 AM 61.9170 18.8010 292° West 412 474 36,000  Level FlightAware ADS-B
Mon 08:02:46 AM 61.9390 18.6810 291° West 412 474 36,000  Level FlightAware ADS-B
Mon 08:03:30 AM 61.9710 18.5140 292° West 415 478 36,000  Level FlightAware ADS-B
Mon 08:04:10 AM 61.9990 18.3630 292° West 417 480 36,000  Level FlightAware ADS-B
Mon 08:04:52 AM 62.0280 18.2030 291° West 417 480 36,000  Level FlightAware ADS-B
Mon 08:05:36 AM 62.0590 18.0360 292° West 420 483 36,000  Level FlightAware ADS-B
Mon 08:06:18 AM 62.0890 17.8710 291° West 422 486 36,000  Level FlightAware ADS-B
Mon 08:06:56 AM 62.1160 17.7240 291° West 423 487 36,000  Level FlightAware ADS-B
Mon 08:07:42 AM 62.1470 17.5460 291° West 422 486 36,000  Level FlightAware ADS-B
Mon 08:08:22 AM 62.1750 17.3900 291° West 423 487 36,000  Level FlightAware ADS-B
Mon 08:09:06 AM 62.2050 17.2210 291° West 421 484 36,000  Level FlightAware ADS-B
Mon 08:09:46 AM 62.2320 17.0650 290° West 421 484 36,000  Level FlightAware ADS-B
Mon 08:10:28 AM 62.2610 16.8980 291° West 420 483 36,000  Level FlightAware ADS-B
Mon 08:11:12 AM 62.2910 16.7250 291° West 420 483 36,000  Level FlightAware ADS-B
Mon 08:11:45 AM 62.3120 16.5990 290° West 420 483 36,000  Level FlightAware ADS-B
Mon 08:12:29 AM 62.3410 16.4280 290° West 419 482 36,000  Level FlightAware ADS-B
Mon 08:13:09 AM 62.3670 16.2700 290° West 418 481 36,000  Level FlightAware ADS-B
Mon 08:13:53 AM 62.3960 16.0960 290° West 419 482 36,000  Level FlightAware ADS-B
Mon 08:14:33 AM 62.4220 15.9400 290° West 420 483 36,000  Level FlightAware ADS-B
Mon 08:15:17 AM 62.4500 15.7660 289° West 419 482 36,000  Level FlightAware ADS-B
Mon 08:15:59 AM 62.4770 15.6010 290° West 418 481 36,000  Level FlightAware ADS-B
Mon 08:16:35 AM 62.4990 15.4580 288° West 417 480 36,000  Level FlightAware ADS-B
Mon 08:17:15 AM 62.5250 15.3000 290° West 417 480 36,000  Level FlightAware ADS-B
Mon 08:17:57 AM 62.5500 15.1380 289° West 422 486 36,000  Level FlightAware ADS-B
Mon 08:18:37 AM 62.5750 14.9750 288° West 425 489 36,000  Level FlightAware ADS-B
Mon 08:19:21 AM 62.6030 14.7980 289° West 422 486 36,000  Level FlightAware ADS-B
Mon 08:21:00 AM 62.6577 14.4090 287° West  Level Estimated
Mon 08:22:00 AM 62.6903 14.1726 287° West  Level Estimated
Mon 08:22:14 AM 62.6950 14.1760 287° West 419 482 36,000  Level FlightAware ADS-B
Mon 08:22:58 AM 62.7320 13.9350 289° West 426 490 36,000  Level FlightAware ADS-B
Mon 08:23:35 AM 62.7550 13.7740 287° West 428 493 36,000  Level FlightAware ADS-B
Mon 08:24:23 AM 62.7830 13.5780 287° West 429 494 36,000  Level FlightAware ADS-B
Mon 08:25:32 AM 62.8230 13.2940 287° West 439 505 36,000  Level FlightAware ADS-B
Mon 08:26:12 AM 62.8480 13.1200 288° West 436 502 36,000  Level FlightAware ADS-B
Mon 08:26:48 AM 62.8690 12.9680 287° West 438 504 36,000  Level FlightAware ADS-B
Mon 08:27:28 AM 62.8920 12.7980 287° West 440 506 36,000  Level FlightAware ADS-B
Mon 08:28:12 AM 62.9180 12.6100 287° West 443 510 36,000  Level FlightAware ADS-B
Mon 08:28:56 AM 62.9430 12.4210 286° West 445 512 36,000  Level FlightAware ADS-B
Mon 08:29:34 AM 62.9650 12.2540 286° West 452 520 36,000  Level FlightAware ADS-B
Mon 08:30:16 AM 62.9900 12.0650 286° West 459 528 36,000  Level FlightAware ADS-B
Mon 08:31:00 AM 63.0150 11.8690 286° West 463 533 36,000  Level FlightAware ADS-B
Mon 08:31:40 AM 63.0380 11.6890 286° West 465 535 36,000  Level FlightAware ADS-B
Mon 08:32:24 AM 63.0640 11.4870 286° West 467 537 36,000  Level FlightAware ADS-B
Mon 08:33:04 AM 63.0870 11.3010 285° West 470 541 36,000  Level FlightAware ADS-B
Mon 08:33:48 AM 63.1120 11.1010 286° West 473 544 36,000  Level FlightAware ADS-B
Mon 08:34:28 AM 63.1340 10.9130 285° West 472 543 36,000  Level FlightAware ADS-B
Mon 08:35:12 AM 63.1600 10.7040 285° West 473 544 36,000  Level FlightAware ADS-B
Mon 08:35:44 AM 63.1770 10.5610 285° West 473 544 36,000  Level FlightAware ADS-B
Mon 08:36:30 AM 63.2020 10.3460 285° West 473 544 36,000  Level FlightAware ADS-B
Mon 08:37:10 AM 63.2240 10.1560 284° West 475 547 36,000  Level FlightAware ADS-B
Mon 08:37:55 AM 63.2470 9.9480 284° West 476 548 36,000  Level FlightAware ADS-B
Mon 08:38:35 AM 63.2680 9.7670 285° West 476 548 36,000  Level FlightAware ADS-B
Mon 08:39:15 AM 63.2890 9.5720 284° West 474 545 36,000  Level FlightAware ADS-B
Mon 08:39:55 AM 63.3090 9.3870 284° West 476 548 36,000  Level FlightAware ADS-B
Mon 08:42:00 AM 63.3585 8.8727 282° West  Level Estimated
Mon 08:43:00 AM 63.3816 8.6251 282° West  Level Estimated
Mon 08:44:00 AM 63.4043 8.3772 282° West  Level Estimated
Mon 08:44:08 AM 63.4290 8.2400 282° West 475 547 36,000  Level FlightAware ADS-B
Mon 08:44:49 AM 63.4490 8.0370 283° West 475 547 36,000  Level FlightAware ADS-B
Mon 08:45:21 AM 63.4700 7.8200 282° West 477 549 36,000  Level FlightAware ADS-B
Mon 08:45:57 AM 63.4860 7.6610 283° West 478 550 36,000  Level FlightAware ADS-B
Mon 08:46:29 AM 63.5010 7.4940 281° West 479 551 36,000  Level FlightAware ADS-B
Mon 08:47:06 AM 63.5180 7.3180 282° West 481 554 36,000  Level FlightAware ADS-B
Mon 08:47:42 AM 63.5340 7.1390 281° West 480 552 36,000  Level FlightAware ADS-B
Mon 08:48:20 AM 63.5510 6.9610 282° West 480 552 36,000  Level FlightAware ADS-B
Mon 08:48:52 AM 63.5650 6.8050 281° West 477 549 36,000  Level FlightAware ADS-B
Mon 08:49:45 AM 63.5870 6.5480 281° West 478 550 36,000  Level FlightAware ADS-B
Mon 08:50:23 AM 63.6040 6.3540 281° West 479 551 36,000  Level FlightAware ADS-B
Mon 08:51:00 AM 63.6180 6.1810 280° West 480 552 36,000  Level FlightAware ADS-B
Mon 08:51:31 AM 63.6320 6.0230 281° West 479 551 36,000  Level FlightAware ADS-B
Mon 08:52:18 AM 63.6470 5.8210 280° West 479 551 36,000  Level FlightAware ADS-B
Mon 08:52:51 AM 63.6640 5.6310 281° West 479 551 36,000  Level FlightAware ADS-B
Mon 08:53:24 AM 63.6760 5.4720 280° West 486 559 36,000  Level FlightAware ADS-B
Mon 08:53:59 AM 63.6910 5.2880 281° West 488 562 36,000  Level FlightAware ADS-B
Mon 08:54:32 AM 63.7030 5.1280 280° West 488 562 36,000  Level FlightAware ADS-B
Mon 08:55:12 AM 63.7180 4.9300 280° West 487 560 36,000  Level FlightAware ADS-B
Mon 08:55:48 AM 63.7310 4.7540 280° West 486 559 36,000  Level FlightAware ADS-B
Mon 08:56:20 AM 63.7400 4.6280 279° West 485 558 36,000  Level FlightAware ADS-B
Mon 08:56:56 AM 63.7560 4.4090 279° West 484 557 36,000  Level FlightAware ADS-B
Mon 08:57:27 AM 63.7670 4.2540 279° West 485 558 36,000  Level FlightAware ADS-B
Mon 08:58:04 AM 63.7800 4.0720 279° West 487 560 36,000  Level FlightAware ADS-B
Mon 08:58:43 AM 63.7930 3.8700 278° West 489 563 36,000  Level FlightAware ADS-B
Mon 08:59:24 AM 63.8020 3.7040 277° West 489 563 36,000  Level FlightAware ADS-B
Mon 08:59:56 AM 63.8180 3.4990 280° West 490 564 36,000  Level FlightAware ADS-B
Mon 09:00:29 AM 63.8280 3.3370 278° West 490 564 36,000  Level FlightAware ADS-B
Mon 09:01:18 AM 63.8410 3.1290 278° West 491 565 36,000  Level FlightAware ADS-B
Mon 09:01:56 AM 63.8530 2.9360 278° West 488 562 36,000  Level FlightAware ADS-B
Mon 09:02:34 AM 63.8630 2.7720 278° West 488 562 36,000  Level FlightAware ADS-B
Mon 09:03:10 AM 63.8730 2.6160 278° West 488 562 36,000  Level FlightAware ADS-B
Mon 09:03:46 AM 63.8830 2.4610 278° West 488 562 36,000  Level FlightAware ADS-B
Mon 09:04:24 AM 63.8930 2.2970 278° West 488 562 36,000  Level FlightAware ADS-B
Mon 09:05:00 AM 63.9020 2.1410 278° West 488 562 36,000  Level FlightAware ADS-B
Mon 09:05:36 AM 63.9120 1.9860 278° West 488 562 36,000  Level FlightAware ADS-B
Mon 09:06:12 AM 63.9220 1.8300 278° West 488 562 36,000  Level FlightAware ADS-B
Mon 09:06:49 AM 63.9310 1.6700 277° West 488 562 36,000  Level FlightAware ADS-B
Mon 09:07:23 AM 63.9400 1.5230 278° West 488 562 36,000  Level FlightAware ADS-B
Mon 09:07:59 AM 63.9500 1.3670 278° West 488 562 36,000  Level FlightAware ADS-B
Mon 09:08:37 AM 63.9600 1.2030 278° West 488 562 36,000  Level FlightAware ADS-B
Mon 09:09:13 AM 63.9700 1.0470 278° West 488 562 36,000  Level FlightAware ADS-B
Mon 09:09:50 AM 63.9800 0.8870 278° West 488 562 36,000  Level FlightAware ADS-B
Mon 09:10:23 AM 63.9860 0.3390 272° West 481 554 36,000  Level FlightAware ADS-B
Mon 09:10:55 AM 63.9930 0.1800 276° West 482 555 36,000  Level FlightAware ADS-B
Mon 09:11:31 AM 64.0000 -0.0030 275° West 483 556 36,000  Level FlightAware ADS-B
Mon 09:12:03 AM 64.0050 -0.1140 276° West 483 556 36,000  Level FlightAware ADS-B
Mon 09:12:44 AM 64.0130 -0.3750 274° West 486 559 36,000  Level FlightAware ADS-B
Mon 09:13:17 AM 64.0180 -0.5410 274° West 487 560 36,000  Level FlightAware ADS-B
Mon 09:13:52 AM 64.0230 -0.7170 274° West 488 562 36,000  Level FlightAware ADS-B
Mon 09:14:28 AM 64.0290 -0.9040 274° West 488 562 36,000  Level FlightAware ADS-B
Mon 09:14:57 AM 64.0330 -1.0480 274° West 489 563 36,000  Level FlightAware ADS-B
Mon 09:15:37 AM 64.0370 -1.2240 273° West 489 563 36,000  Level FlightAware ADS-B
Mon 09:16:11 AM 64.0400 -1.3730 273° West 489 563 36,000  Level FlightAware ADS-B
Mon 09:16:51 AM 64.0440 -1.5480 273° West 489 563 36,000  Level FlightAware ADS-B
Mon 09:17:29 AM 64.0520 -1.8380 274° West 493 567 36,000  Level FlightAware ADS-B
Mon 09:18:05 AM 64.0560 -2.0270 273° West 492 566 36,000  Level FlightAware ADS-B
Mon 09:18:38 AM 64.0590 -2.1990 272° West 491 565 36,000  Level FlightAware ADS-B
Mon 09:19:14 AM 64.0630 -2.3810 273° West 490 564 36,000  Level FlightAware ADS-B
Mon 09:19:50 AM 64.0660 -2.5680 272° West 490 564 36,000  Level FlightAware ADS-B
Mon 09:20:17 AM 64.0680 -2.7030 272° West 489 563 36,000  Level FlightAware ADS-B
Mon 09:20:57 AM 64.0690 -2.8790 271° West 489 563 36,000  Level FlightAware ADS-B
Mon 09:21:33 AM 64.0710 -3.0370 272° West 489 563 36,000  Level FlightAware ADS-B
Mon 09:22:09 AM 64.0720 -3.1960 271° West 489 563 36,000  Level FlightAware ADS-B
Mon 09:22:43 AM 64.0780 -3.4540 273° West 495 570 36,000  Level FlightAware ADS-B
Mon 09:23:19 AM 64.0800 -3.6450 271° West 496 571 36,000  Level FlightAware ADS-B
Mon 09:23:57 AM 64.0820 -3.8500 271° West 497 572 36,000  Level FlightAware ADS-B
Mon 09:24:33 AM 64.0830 -4.0400 271° West 496 571 36,000  Level FlightAware ADS-B
Mon 09:25:05 AM 64.0840 -4.2060 271° West 495 570 36,000  Level FlightAware ADS-B
Mon 09:25:38 AM 64.0850 -4.3780 271° West 494 568 36,000  Level FlightAware ADS-B
Mon 09:26:14 AM 64.0860 -4.5670 271° West 494 568 36,000  Level FlightAware ADS-B
Mon 09:26:52 AM 64.0860 -4.7640 270° West 495 570 36,000  Level FlightAware ADS-B
Mon 09:27:26 AM 64.0860 -4.9410 270° West 495 570 36,000  Level FlightAware ADS-B
Mon 09:28:07 AM 64.0860 -5.1500 270° West 494 568 36,000  Level FlightAware ADS-B
Mon 09:28:44 AM 64.0860 -5.3450 270° West 493 567 36,000  Level FlightAware ADS-B
Mon 09:29:17 AM 64.0850 -5.5150 269° West 493 567 36,000  Level FlightAware ADS-B
Mon 09:29:53 AM 64.0850 -5.7050 270° West 492 566 36,000  Level FlightAware ADS-B
Mon 09:30:29 AM 64.0840 -5.8930 269° West 493 567 36,000  Level FlightAware ADS-B
Mon 09:31:00 AM 64.0830 -6.0500 269° West 494 568 36,000  Level FlightAware ADS-B
Mon 09:31:37 AM 64.0810 -6.2430 269° West 494 568 36,000  Level FlightAware ADS-B
Mon 09:32:15 AM 64.0790 -6.4410 269° West 491 565 36,000  Level FlightAware ADS-B
Mon 09:32:47 AM 64.0770 -6.6020 268° West 490 564 36,000  Level FlightAware ADS-B
Mon 09:33:23 AM 64.0750 -6.7870 269° West 488 562 36,000  Level FlightAware ADS-B
Mon 09:33:55 AM 64.0730 -6.9540 269° West 487 560 36,000  Level FlightAware ADS-B
Mon 09:34:32 AM 64.0710 -7.1450 269° West 487 560 36,000  Level FlightAware ADS-B
Mon 09:35:09 AM 64.0680 -7.3320 268° West 488 562 36,000  Level FlightAware ADS-B
Mon 09:35:45 AM 64.0640 -7.5180 267° West 490 564 36,000  Level FlightAware ADS-B
Mon 09:36:23 AM 64.0610 -7.6870 268° West 491 565 36,000  Level FlightAware ADS-B
Mon 09:37:00 AM 64.0570 -7.8510 267° West 491 565 36,000  Level FlightAware ADS-B
Mon 09:37:49 AM 64.0520 -8.1410 268° West 494 568 36,000  Level FlightAware ADS-B
Mon 09:38:23 AM 64.0490 -8.2920 267° West 494 568 36,000  Level FlightAware ADS-B
Mon 09:39:00 AM 64.0450 -8.4560 267° West 494 568 36,000  Level FlightAware ADS-B
Mon 09:39:36 AM 64.0410 -8.6160 267° West 494 568 36,000  Level FlightAware ADS-B
Mon 09:40:11 AM 64.0380 -8.7710 268° West 494 568 36,000  Level FlightAware ADS-B
Mon 09:40:48 AM 64.0340 -8.9350 267° West 494 568 36,000  Level FlightAware ADS-B
Mon 09:41:24 AM 64.0300 -9.0940 267° West 494 568 36,000  Level FlightAware ADS-B
Mon 09:42:01 AM 64.0260 -9.2580 267° West 494 568 36,000  Level FlightAware ADS-B
Mon 09:42:38 AM 64.0220 -9.4220 267° West 494 568 36,000  Level FlightAware ADS-B
Mon 09:43:12 AM 64.0190 -9.5730 267° West 494 568 36,000  Level FlightAware ADS-B
Mon 09:43:47 AM 64.0000 -10.0100 265° West 491 565 36,000  Level FlightAware ADS-B
Mon 09:44:19 AM 63.9890 -10.1770 262° West 490 564 36,000  Level FlightAware ADS-B
Mon 09:44:54 AM 63.9780 -10.3520 262° West 490 564 36,000  Level FlightAware ADS-B
Mon 09:45:29 AM 63.9660 -10.5330 261° West 490 564 36,000  Level FlightAware ADS-B
Mon 09:46:05 AM 63.9540 -10.7130 261° West 491 565 36,000  Level FlightAware ADS-B
Mon 09:46:41 AM 63.9410 -10.9000 261° West 490 564 36,000  Level FlightAware ADS-B
Mon 09:47:15 AM 63.9290 -11.0700 261° West 490 564 36,000  Level FlightAware ADS-B
Mon 09:47:49 AM 63.9170 -11.2390 261° West 489 563 36,000  Level FlightAware ADS-B
Mon 09:48:27 AM 63.9030 -11.4340 261° West 489 563 36,000  Level FlightAware ADS-B
Mon 09:49:02 AM 63.8900 -11.6100 261° West 489 563 36,000  Level FlightAware ADS-B
Mon 09:49:35 AM 63.8780 -11.7780 261° West 490 564 36,000  Level FlightAware ADS-B
Mon 09:50:11 AM 63.8640 -11.9580 260° West 490 564 36,000  Level FlightAware ADS-B
Mon 09:50:47 AM 63.8500 -12.1440 260° West 490 564 36,000  Level FlightAware ADS-B
Mon 09:51:22 AM 63.8360 -12.3150 260° West 490 564 36,000  Level FlightAware ADS-B
Mon 09:51:54 AM 63.8230 -12.4770 260° West 490 564 36,000  Level FlightAware ADS-B
Mon 09:52:30 AM 63.8090 -12.6580 260° West 491 565 36,000  Level FlightAware ADS-B
Mon 09:53:07 AM 63.7930 -12.8430 259° West 491 565 36,000  Level FlightAware ADS-B
Mon 09:53:43 AM 63.7780 -13.0250 260° West 491 565 36,000  Level FlightAware ADS-B
Mon 09:54:11 AM 63.7660 -13.1670 259° West 492 566 36,000  Level FlightAware ADS-B
Mon 09:54:41 AM 63.7530 -13.3190 259° West 492 566 36,000  Level FlightAware ADS-B
Mon 09:55:19 AM 63.7360 -13.5110 259° West 493 567 36,000  Level FlightAware ADS-B
Mon 09:55:55 AM 63.7200 -13.6950 259° West 494 568 36,000  Level FlightAware ADS-B
Mon 09:56:29 AM 63.7050 -13.8610 259° West 494 568 36,000  Level FlightAware ADS-B
Mon 09:57:05 AM 63.6880 -14.0440 258° West 493 567 36,000  Level FlightAware ADS-B
Mon 09:57:41 AM 63.6710 -14.2250 258° West 492 566 36,000  Level FlightAware ADS-B
Mon 09:58:11 AM 63.6570 -14.3740 258° West 491 565 36,000  Level FlightAware ADS-B
Mon 09:58:50 AM 63.6390 -14.5640 258° West 491 565 36,000  Level FlightAware ADS-B
Mon 09:59:27 AM 63.6210 -14.7520 258° West 492 566 36,000  Level FlightAware ADS-B
Mon 09:59:59 AM 63.6050 -14.9110 257° West 492 566 36,000  Level FlightAware ADS-B
Mon 10:00:35 AM 63.5880 -15.0880 258° West 491 565 36,000  Level FlightAware ADS-B
Mon 10:01:10 AM 63.5700 -15.2600 257° West 491 565 36,000  Level FlightAware ADS-B
Mon 10:01:39 AM 63.5550 -15.4070 257° West 490 564 36,000  Level FlightAware ADS-B
Mon 10:02:09 AM 63.5400 -15.5530 257° West 489 563 36,000  Level FlightAware ADS-B
Mon 10:02:48 AM 63.5200 -15.7440 257° West 490 564 36,000  Level FlightAware ADS-B
Mon 10:03:23 AM 63.5020 -15.9200 257° West 491 565 36,000  Level FlightAware ADS-B
Mon 10:03:56 AM 63.4840 -16.0790 256° West 492 566 36,000  Level FlightAware ADS-B
Mon 10:04:28 AM 63.4670 -16.2360 256° West 492 566 36,000  Level FlightAware ADS-B
Mon 10:05:01 AM 63.4500 -16.3990 257° West 492 566 36,000  Level FlightAware ADS-B
Mon 10:05:37 AM 63.4300 -16.5750 256° West 490 564 36,000  Level FlightAware ADS-B
Mon 10:06:09 AM 63.4120 -16.7330 256° West 489 563 36,000  Level FlightAware ADS-B
Mon 10:06:45 AM 63.3920 -16.9100 256° West 489 563 36,000  Level FlightAware ADS-B
Mon 10:07:21 AM 63.3720 -17.0850 256° West 487 560 36,000  Level FlightAware ADS-B
Mon 10:07:55 AM 63.3530 -17.2490 256° West 486 559 36,000  Level FlightAware ADS-B
Mon 10:08:31 AM 63.3320 -17.4230 255° West 484 557 36,000  Level FlightAware ADS-B
Mon 10:09:07 AM 63.3120 -17.5950 256° West 483 556 36,000  Level FlightAware ADS-B
Mon 10:09:41 AM 63.2920 -17.7580 255° West 482 555 36,000  Level FlightAware ADS-B
Mon 10:10:16 AM 63.2720 -17.9210 255° West 480 552 36,000  Level FlightAware ADS-B
Mon 10:10:50 AM 63.2530 -18.0830 255° West 479 551 36,000  Level FlightAware ADS-B
Mon 10:11:25 AM 63.2320 -18.2480 254° West 477 549 36,000  Level FlightAware ADS-B
Mon 10:11:59 AM 63.2140 -18.3910 254° West 477 549 36,000  Level FlightAware ADS-B
Mon 10:12:35 AM 63.1900 -18.5790 254° West 478 550 36,000  Level FlightAware ADS-B
Mon 10:13:11 AM 63.1680 -18.7470 254° West 478 550 36,000  Level FlightAware ADS-B
Mon 10:13:46 AM 63.1470 -18.9090 254° West 477 549 36,000  Level FlightAware ADS-B
Mon 10:14:21 AM 63.1260 -19.0730 254° West 476 548 36,000  Level FlightAware ADS-B
Mon 10:14:57 AM 63.1040 -19.2410 254° West 476 548 36,000  Level FlightAware ADS-B
Mon 10:15:31 AM 63.0830 -19.4000 254° West 475 547 36,000  Level FlightAware ADS-B
Mon 10:16:06 AM 63.0610 -19.5590 253° West 474 545 36,000  Level FlightAware ADS-B
Mon 10:16:42 AM 63.0380 -19.7250 253° West 475 547 36,000  Level FlightAware ADS-B
Mon 10:17:16 AM 63.0170 -19.8830 254° West 476 548 36,000  Level FlightAware ADS-B
Mon 10:17:54 AM 62.9960 -20.0620 256° West 480 552 36,000  Level FlightAware ADS-B
Mon 10:18:25 AM 62.9870 -20.2090 262° West 481 554 36,000  Level FlightAware ADS-B
Mon 10:19:03 AM 62.9750 -20.3960 262° West 481 554 36,000  Level FlightAware ADS-B
Mon 10:19:36 AM 62.9650 -20.5590 262° West 483 556 36,000  Level FlightAware ADS-B
Mon 10:20:11 AM 62.9540 -20.7240 262° West 483 556 36,000  Level FlightAware ADS-B
Mon 10:20:47 AM 62.9420 -20.8980 261° West 484 557 36,000  Level FlightAware ADS-B
Mon 10:21:23 AM 62.9300 -21.0730 262° West 485 558 36,000  Level FlightAware ADS-B
Mon 10:21:55 AM 62.9200 -21.2190 262° West 486 559 36,000  Level FlightAware ADS-B
Mon 10:22:31 AM 62.9070 -21.3950 261° West 487 560 36,000  Level FlightAware ADS-B
Mon 10:23:09 AM 62.8930 -21.5800 261° West 489 563 36,000  Level FlightAware ADS-B
Mon 10:23:43 AM 62.8810 -21.7470 261° West 490 564 36,000  Level FlightAware ADS-B
Mon 10:24:14 AM 62.8700 -21.8990 261° West 489 563 36,000  Level FlightAware ADS-B
Mon 10:24:51 AM 62.8560 -22.0730 260° West 488 562 36,000  Level FlightAware ADS-B
Mon 10:25:36 AM 62.8390 -22.2960 261° West 487 560 36,000  Level FlightAware ADS-B
Mon 10:26:09 AM 62.8270 -22.4520 261° West 488 562 36,000  Level FlightAware ADS-B
Mon 10:26:45 AM 62.8120 -22.6340 260° West 488 562 36,000  Level FlightAware ADS-B
Mon 10:27:20 AM 62.7970 -22.8110 260° West 489 563 36,000  Level FlightAware ADS-B
Mon 10:27:52 AM 62.7840 -22.9670 260° West 490 564 36,000  Level FlightAware ADS-B
Mon 10:28:29 AM 62.7700 -23.1430 260° West 490 564 36,000  Level FlightAware ADS-B
Mon 10:29:01 AM 62.7560 -23.2970 259° West 488 562 36,000  Level FlightAware ADS-B
Mon 10:29:39 AM 62.7410 -23.4730 260° West 485 558 36,000  Level FlightAware ADS-B
Mon 10:30:12 AM 62.7260 -23.6400 259° West 485 558 36,000  Level FlightAware ADS-B
Mon 10:30:51 AM 62.7100 -23.8180 259° West 487 560 36,000  Level FlightAware ADS-B
Mon 10:31:24 AM 62.6950 -23.9880 259° West 489 563 36,000  Level FlightAware ADS-B
Mon 10:31:59 AM 62.6790 -24.1540 258° West 490 564 36,000  Level FlightAware ADS-B
Mon 10:32:36 AM 62.6630 -24.3330 259° West 489 563 36,000  Level FlightAware ADS-B
Mon 10:33:05 AM 62.6500 -24.4680 258° West 489 563 36,000  Level FlightAware ADS-B
Mon 10:33:41 AM 62.6340 -24.6400 259° West 487 560 36,000  Level FlightAware ADS-B
Mon 10:34:19 AM 62.6160 -24.8240 258° West 486 559 36,000  Level FlightAware ADS-B
Mon 10:34:54 AM 62.5990 -24.9940 258° West 485 558 36,000  Level FlightAware ADS-B
Mon 10:35:31 AM 62.5820 -25.1610 258° West 485 558 36,000  Level FlightAware ADS-B
Mon 10:36:01 AM 62.5670 -25.3070 257° West 485 558 36,000  Level FlightAware ADS-B
Mon 10:36:37 AM 62.5490 -25.4800 257° West 484 557 36,000  Level FlightAware ADS-B
Mon 10:37:13 AM 62.5320 -25.6480 258° West 485 558 36,000  Level FlightAware ADS-B
Mon 10:37:49 AM 62.5140 -25.8170 257° West 486 559 36,000  Level FlightAware ADS-B
Mon 10:38:25 AM 62.4960 -25.9840 257° West 486 559 36,000  Level FlightAware ADS-B
Mon 10:38:57 AM 62.4800 -26.1400 258° West 486 559 36,000  Level FlightAware ADS-B
Mon 10:39:32 AM 62.4620 -26.3050 257° West 487 560 36,000  Level FlightAware ADS-B
Mon 10:40:09 AM 62.4420 -26.4790 256° West 486 559 36,000  Level FlightAware ADS-B
Mon 10:40:43 AM 62.4250 -26.6310 256° West 485 558 36,000  Level FlightAware ADS-B
Mon 10:41:17 AM 62.4060 -26.7980 256° West 487 560 36,000  Level FlightAware ADS-B
Mon 10:41:55 AM 62.3860 -26.9750 256° West 487 560 36,000  Level FlightAware ADS-B
Mon 10:42:27 AM 62.3690 -27.1220 256° West 486 559 36,000  Level FlightAware ADS-B
Mon 10:43:05 AM 62.3480 -27.3060 256° West 487 560 36,000  Level FlightAware ADS-B
Mon 10:43:38 AM 62.3300 -27.4570 256° West 488 562 36,000  Level FlightAware ADS-B
Mon 10:44:16 AM 62.3080 -27.6390 255° West 489 563 36,000  Level FlightAware ADS-B
Mon 10:44:46 AM 62.2910 -27.7800 256° West 489 563 36,000  Level FlightAware ADS-B
Mon 10:45:24 AM 62.2700 -27.9530 255° West 491 565 36,000  Level FlightAware ADS-B
Mon 10:46:00 AM 62.2480 -28.1260 255° West 491 565 36,000  Level FlightAware ADS-B
Mon 10:46:32 AM 62.2290 -28.2780 255° West 492 566 36,000  Level FlightAware ADS-B
Mon 10:47:10 AM 62.2070 -28.4560 255° West 492 566 36,000  Level FlightAware ADS-B
Mon 10:47:45 AM 62.1870 -28.6110 255° West 491 565 36,000  Level FlightAware ADS-B
Mon 10:48:25 AM 62.1640 -28.7900 255° West 491 565 36,000  Level FlightAware ADS-B
Mon 10:49:16 AM 62.1330 -29.0230 254° West 490 564 36,000  Level FlightAware ADS-B
Mon 10:49:50 AM 62.1100 -29.2000 255° West 488 562 36,000  Level FlightAware ADS-B
Mon 10:50:24 AM 62.0880 -29.3580 253° West 490 564 36,000  Level FlightAware ADS-B
Mon 10:50:59 AM 62.0670 -29.5170 254° West 492 566 36,000  Level FlightAware ADS-B
Mon 10:51:55 AM 62.0340 -29.7530 253° West 493 567 36,000  Level FlightAware ADS-B
Mon 10:52:31 AM 62.0080 -29.9390 253° West 493 567 36,000  Level FlightAware ADS-B
Mon 10:53:09 AM 61.9830 -30.0860 250° West 493 567 36,000  Level FlightAware ADS-B
Mon 10:53:45 AM 61.9590 -30.2260 250° West 493 567 36,000  Level FlightAware ADS-B
Mon 10:54:22 AM 61.9340 -30.3690 250° West 493 567 36,000  Level FlightAware ADS-B
Mon 10:54:58 AM 61.9100 -30.5090 250° West 493 567 36,000  Level FlightAware ADS-B
Mon 10:55:34 AM 61.8870 -30.6480 251° West 493 567 36,000  Level FlightAware ADS-B
Mon 10:56:11 AM 61.8620 -30.7910 250° West 493 567 36,000  Level FlightAware ADS-B
Mon 10:56:47 AM 61.8380 -30.9300 250° West 493 567 36,000  Level FlightAware ADS-B
Mon 10:57:23 AM 61.8140 -31.0690 250° West 493 567 36,000  Level FlightAware ADS-B
Mon 10:57:59 AM 61.7900 -31.2070 250° West 493 567 36,000  Level FlightAware ADS-B
Mon 10:58:35 AM 61.7660 -31.3460 250° West 493 567 36,000  Level FlightAware ADS-B
Mon 10:59:11 AM 61.7430 -31.4850 251° West 493 567 36,000  Level FlightAware ADS-B
Mon 10:59:47 AM 61.7190 -31.6230 250° West 493 567 36,000  Level FlightAware ADS-B
Mon 11:00:25 AM 61.6930 -31.7690 249° West 493 567 36,000  Level FlightAware ADS-B
Mon 11:01:02 AM 61.6690 -31.9110 250° West 493 567 36,000  Level FlightAware ADS-B
Mon 11:01:38 AM 61.6450 -32.0490 250° West 493 567 36,000  Level FlightAware ADS-B
Mon 11:02:15 AM 61.6200 -32.1910 250° West 493 567 36,000  Level FlightAware ADS-B
Mon 11:04:00 AM 61.5285 -32.5964 245° Southwest  Level Estimated
Mon 11:05:00 AM 61.4757 -32.8269 244° Southwest  Level Estimated
Mon 11:06:00 AM 61.4226 -33.0567 244° Southwest  Level Estimated
Mon 11:07:00 AM 61.3690 -33.2857 244° Southwest  Level Estimated
Mon 11:08:00 AM 61.3150 -33.5139 244° Southwest  Level Estimated
Mon 11:09:00 AM 61.2607 -33.7413 244° Southwest  Level Estimated
Mon 11:10:00 AM 61.2060 -33.9679 243° Southwest  Level Estimated
Mon 11:11:00 AM 61.1509 -34.1938 243° Southwest  Level Estimated
Mon 11:12:00 AM 61.0954 -34.4188 243° Southwest  Level Estimated
Mon 11:13:00 AM 61.0396 -34.6431 243° Southwest  Level Estimated
Mon 11:14:00 AM 60.9833 -34.8666 243° Southwest  Level Estimated
Mon 11:15:00 AM 60.9268 -35.0892 242° Southwest  Level Estimated
Mon 11:16:00 AM 60.8698 -35.3111 242° Southwest  Level Estimated
Mon 11:17:00 AM 60.8125 -35.5322 242° Southwest  Level Estimated
Mon 11:18:00 AM 60.7548 -35.7525 242° Southwest  Level Estimated
Mon 11:19:00 AM 60.6968 -35.9720 242° Southwest  Level Estimated
Mon 11:20:00 AM 60.6384 -36.1908 242° Southwest  Level Estimated
Mon 11:21:00 AM 60.5797 -36.4087 241° Southwest  Level Estimated
Mon 11:22:00 AM 60.5206 -36.6258 241° Southwest  Level Estimated
Mon 11:23:00 AM 60.4611 -36.8422 241° Southwest  Level Estimated
Mon 11:24:00 AM 60.4013 -37.0577 241° Southwest  Level Estimated
Mon 11:25:00 AM 60.3412 -37.2724 241° Southwest  Level Estimated
Mon 11:26:00 AM 60.2807 -37.4864 240° Southwest  Level Estimated
Mon 11:27:00 AM 60.2198 -37.6996 240° Southwest  Level Estimated
Mon 11:28:00 AM 60.1587 -37.9119 240° Southwest  Level Estimated
Mon 11:29:00 AM 60.0972 -38.1235 240° Southwest  Level Estimated
Mon 11:30:00 AM 60.0353 -38.3343 240° Southwest  Level Estimated
Mon 11:31:00 AM 59.9731 -38.5443 239° Southwest  Level Estimated
Mon 11:32:00 AM 59.9106 -38.7535 239° Southwest  Level Estimated
Mon 11:33:00 AM 59.8478 -38.9620 239° Southwest  Level Estimated
Mon 11:34:00 AM 59.7846 -39.1696 239° Southwest  Level Estimated
Mon 11:35:00 AM 59.7211 -39.3764 239° Southwest  Level Estimated
Mon 11:36:00 AM 59.6573 -39.5825 239° Southwest  Level Estimated
Mon 11:37:00 AM 59.5931 -39.7878 238° Southwest  Level Estimated
Mon 11:38:00 AM 59.5287 -39.9923 238° Southwest  Level Estimated
Mon 11:39:00 AM 59.4639 -40.1960 238° Southwest  Level Estimated
Mon 11:40:00 AM 59.3988 -40.3989 238° Southwest  Level Estimated
Mon 11:41:00 AM 59.3334 -40.6011 238° Southwest  Level Estimated
Mon 11:42:00 AM 59.2677 -40.8024 237° Southwest  Level Estimated
Mon 11:43:00 AM 59.2016 -41.0031 237° Southwest  Level Estimated
Mon 11:44:00 AM 59.1353 -41.2029 237° Southwest  Level Estimated
Mon 11:45:00 AM 59.0686 -41.4019 237° Southwest  Level Estimated
Mon 11:46:00 AM 59.0017 -41.6002 237° Southwest  Level Estimated
Mon 11:47:00 AM 58.9344 -41.7977 237° Southwest  Level Estimated
Mon 11:48:00 AM 58.8669 -41.9944 236° Southwest  Level Estimated
Mon 11:49:00 AM 58.7990 -42.1904 236° Southwest  Level Estimated
Mon 11:50:00 AM 58.7309 -42.3856 236° Southwest  Level Estimated
Mon 11:51:00 AM 58.6624 -42.5800 236° Southwest  Level Estimated
Mon 11:52:00 AM 58.5937 -42.7737 236° Southwest  Level Estimated
Mon 11:53:00 AM 58.5247 -42.9666 236° Southwest  Level Estimated
Mon 11:54:00 AM 58.4554 -43.1587 235° Southwest  Level Estimated
Mon 11:55:00 AM 58.3858 -43.3501 235° Southwest  Level Estimated
Mon 11:56:00 AM 58.3159 -43.5408 235° Southwest  Level Estimated
Mon 11:57:00 AM 58.2457 -43.7307 235° Southwest  Level Estimated
Mon 11:58:00 AM 58.1753 -43.9198 235° Southwest  Level Estimated
Mon 11:59:00 AM 58.1046 -44.1082 235° Southwest  Level Estimated
Mon 12:00:00 PM 58.0336 -44.2958 234° Southwest  Level Estimated
Mon 12:01:00 PM 57.9623 -44.4827 234° Southwest  Level Estimated
Mon 12:02:00 PM 57.8908 -44.6688 234° Southwest  Level Estimated
Mon 12:03:00 PM 57.8189 -44.8542 234° Southwest  Level Estimated
Mon 12:04:00 PM 57.7468 -45.0389 234° Southwest  Level Estimated
Mon 12:05:00 PM 57.6745 -45.2228 234° Southwest  Level Estimated
Mon 12:06:00 PM 57.6019 -45.4060 234° Southwest  Level Estimated
Mon 12:07:00 PM 57.5290 -45.5885 233° Southwest  Level Estimated
Mon 12:08:00 PM 57.4558 -45.7702 233° Southwest  Level Estimated
Mon 12:09:00 PM 57.3824 -45.9513 233° Southwest  Level Estimated
Mon 12:10:00 PM 57.3088 -46.1315 233° Southwest  Level Estimated
Mon 12:11:00 PM 57.2349 -46.3111 233° Southwest  Level Estimated
Mon 12:12:00 PM 57.1607 -46.4899 233° Southwest  Level Estimated
Mon 12:13:00 PM 57.0862 -46.6681 232° Southwest  Level Estimated
Mon 12:14:00 PM 57.0116 -46.8455 232° Southwest  Level Estimated
Mon 12:15:00 PM 56.9366 -47.0222 232° Southwest  Level Estimated
Mon 12:16:00 PM 56.8615 -47.1982 232° Southwest  Level Estimated
Mon 12:17:00 PM 56.7860 -47.3735 232° Southwest  Level Estimated
Mon 12:18:00 PM 56.7104 -47.5480 232° Southwest  Level Estimated
Mon 12:19:00 PM 56.6344 -47.7219 232° Southwest  Level Estimated
Mon 12:20:00 PM 56.5583 -47.8951 231° Southwest  Level Estimated
Mon 12:21:00 PM 56.4819 -48.0676 231° Southwest  Level Estimated
Mon 12:22:00 PM 56.4053 -48.2393 231° Southwest  Level Estimated
Mon 12:23:00 PM 56.3284 -48.4104 231° Southwest  Level Estimated
Mon 12:24:00 PM 56.2513 -48.5808 231° Southwest  Level Estimated
Mon 12:25:00 PM 56.1739 -48.7505 231° Southwest  Level Estimated
Mon 12:26:00 PM 56.0964 -48.9196 231° Southwest  Level Estimated
Mon 12:27:00 PM 56.0186 -49.0879 230° Southwest  Level Estimated
Mon 12:28:00 PM 55.9405 -49.2556 230° Southwest  Level Estimated
Mon 12:29:00 PM 55.8623 -49.4226 230° Southwest  Level Estimated
Mon 12:30:00 PM 55.7838 -49.5889 230° Southwest  Level Estimated
Mon 12:31:00 PM 55.7051 -49.7546 230° Southwest  Level Estimated
Mon 12:32:00 PM 55.6262 -49.9196 230° Southwest  Level Estimated
Mon 12:33:00 PM 55.5470 -50.0839 230° Southwest  Level Estimated
Mon 12:34:00 PM 55.4677 -50.2476 229° Southwest  Level Estimated
Mon 12:35:00 PM 55.3881 -50.4106 229° Southwest  Level Estimated
Mon 12:36:00 PM 55.3083 -50.5729 229° Southwest  Level Estimated
Mon 12:37:00 PM 55.2283 -50.7346 229° Southwest  Level Estimated
Mon 12:38:00 PM 55.1480 -50.8957 229° Southwest  Level Estimated
Mon 12:39:00 PM 55.0676 -51.0561 229° Southwest  Level Estimated
Mon 12:40:00 PM 54.9869 -51.2159 229° Southwest  Level Estimated
Mon 12:41:00 PM 54.9061 -51.3750 229° Southwest  Level Estimated
Mon 12:42:00 PM 54.8250 -51.5335 228° Southwest  Level Estimated
Mon 12:43:00 PM 54.7438 -51.6913 228° Southwest  Level Estimated
Mon 12:44:00 PM 54.6623 -51.8485 228° Southwest  Level Estimated
Mon 12:45:00 PM 54.5806 -52.0051 228° Southwest  Level Estimated
Mon 12:46:00 PM 54.4987 -52.1610 228° Southwest  Level Estimated
Mon 12:46:48 PM 53.5000 -53.4833 227° Southwest 450 518 36,000  Level Gander Center
Mon 12:47:00 PM 54.4166 -52.3164 228° Southwest  Level Estimated
Mon 12:47:48 PM 53.4000 -53.6167 219° Southwest 450 518 36,000  Level Gander Center
Mon 12:48:00 PM 54.3344 -52.4711 228° Southwest  Level Estimated
Mon 12:48:48 PM 53.3000 -53.7500 219° Southwest 450 518 36,000  Level Gander Center
Mon 12:49:00 PM 54.2519 -52.6252 228° Southwest  Level Estimated
Mon 12:49:48 PM 53.2000 -53.8833 219° Southwest 450 518 36,000  Level Gander Center
Mon 12:50:00 PM 54.1692 -52.7786 227° Southwest  Level Estimated
Mon 12:50:48 PM 53.1167 -54.0000 220° Southwest 450 518 36,000  Level Gander Center
Mon 12:51:00 PM 54.0864 -52.9315 227° Southwest  Level Estimated
Mon 12:51:48 PM 53.0333 -54.1500 227° Southwest 430 495 36,000  Level Gander Center
Mon 12:52:48 PM 52.9667 -54.3000 234° Southwest 420 483 36,000  Level Gander Center
Mon 12:53:48 PM 52.8833 -54.4667 230° Southwest 420 483 36,000  Level Gander Center
Mon 12:54:48 PM 52.8167 -54.6167 234° Southwest 420 483 36,000  Level Gander Center
Mon 12:55:48 PM 52.7333 -54.7667 227° Southwest 430 495 36,000  Level Gander Center
Mon 12:56:48 PM 52.6500 -54.9167 228° Southwest 430 495 36,000  Level Gander Center
Mon 12:57:48 PM 52.5667 -55.0667 228° Southwest 430 495 36,000  Level Gander Center
Mon 12:58:48 PM 52.4833 -55.2167 228° Southwest 430 495 36,000  Level Gander Center
Mon 12:59:48 PM 52.4167 -55.3500 231° Southwest 430 495 36,000  Level Gander Center
Mon 01:00:48 PM 52.3333 -55.5000 228° Southwest 430 495 36,000  Level Gander Center
Mon 01:01:48 PM 52.2667 -55.6500 234° Southwest 430 495 36,000  Level Gander Center
Mon 01:02:48 PM 52.1667 -55.8000 223° Southwest 440 506 36,000  Level Gander Center
Mon 01:03:48 PM 52.0833 -55.9500 228° Southwest 440 506 36,000  Level Gander Center
Mon 01:04:48 PM 52.0167 -56.0833 231° Southwest 430 495 36,000  Level Gander Center
Mon 01:05:48 PM 51.9333 -56.2333 228° Southwest 430 495 36,000  Level Gander Center
Mon 01:06:48 PM 51.8500 -56.3833 228° Southwest 430 495 36,000  Level Gander Center
Mon 01:07:48 PM 51.7667 -56.5167 225° Southwest 430 495 36,000  Level Gander Center
Mon 01:08:48 PM 51.6833 -56.6667 228° Southwest 440 506 36,000  Level Gander Center
Mon 01:09:48 PM 51.6000 -56.8167 228° Southwest 440 506 36,000  Level Gander Center
Mon 01:10:48 PM 51.5333 -56.9500 231° Southwest 430 495 36,000  Level Gander Center
Mon 01:11:48 PM 51.4333 -57.1000 223° Southwest 430 495 36,000  Level Gander Center
Mon 01:12:48 PM 51.3500 -57.2333 225° Southwest 440 506 36,000  Level Gander Center
Mon 01:13:48 PM 51.2667 -57.3833 228° Southwest 440 506 36,000  Level Gander Center
Mon 01:14:48 PM 51.2000 -57.5167 231° Southwest 430 495 36,000  Level Gander Center
Mon 01:15:48 PM 51.1000 -57.6833 226° Southwest 430 495 36,000  Level Gander Center
Mon 01:16:48 PM 51.0167 -57.8000 221° Southwest 440 506 36,000  Level Gander Center
Mon 01:17:48 PM 50.9333 -57.9667 232° Southwest 440 506 36,000  Level Gander Center
Mon 01:18:48 PM 50.8667 -58.1000 232° Southwest 440 506 36,000  Level Gander Center
Mon 01:23:51 PM 50.4380 -58.8200 232° Southwest 435 501 36,000  Level FlightAware ADS-B
Mon 01:24:26 PM 50.3850 -58.9060 226° Southwest 436 502 36,000  Level FlightAware ADS-B
Mon 01:25:11 PM 50.3210 -59.0080 226° Southwest 437 503 36,000  Level FlightAware ADS-B
Mon 01:25:46 PM 50.2720 -59.0870 226° Southwest 437 503 36,000  Level FlightAware ADS-B
Mon 01:26:36 PM 50.2060 -59.1910 225° Southwest 437 503 36,000  Level FlightAware ADS-B
Mon 01:27:12 PM 50.1620 -59.2590 225° Southwest 437 503 36,000  Level FlightAware ADS-B
Mon 01:27:50 PM 50.1160 -59.3310 225° Southwest 437 503 36,000  Level FlightAware ADS-B
Mon 01:28:25 PM 50.0730 -59.3970 225° Southwest 437 503 36,000  Level FlightAware ADS-B
Mon 01:29:01 PM 50.0290 -59.4650 225° Southwest 437 503 36,000  Level FlightAware ADS-B
Mon 01:29:37 PM 49.9860 -59.5330 225° Southwest 437 503 36,000  Level FlightAware ADS-B
Mon 01:30:11 PM 49.9440 -59.5980 225° Southwest 437 503 36,000  Level FlightAware ADS-B
Mon 01:30:47 PM 49.9010 -59.6660 226° Southwest 437 503 36,000  Level FlightAware ADS-B
Mon 01:31:23 PM 49.8570 -59.7330 224° Southwest 437 503 36,000  Level FlightAware ADS-B
Mon 01:32:00 PM 49.8120 -59.8030 225° Southwest 437 503 36,000  Level FlightAware ADS-B
Mon 01:32:48 PM 49.6667 -59.9833 225° Southwest 440 506 36,000  Level Gander Center
Mon 01:33:48 PM 49.5833 -60.1167 226° Southwest 440 506 36,000  Level Gander Center
Mon 01:34:48 PM 49.5000 -60.2500 226° Southwest 440 506 36,000  Level Gander Center
Mon 01:35:48 PM 49.4000 -60.3833 221° Southwest 440 506 36,000  Level Gander Center
Mon 01:36:48 PM 49.3167 -60.5167 226° Southwest 440 506 36,000  Level Gander Center
Mon 01:37:48 PM 49.2333 -60.6500 226° Southwest 430 495 36,000  Level Gander Center
Mon 01:38:48 PM 49.1500 -60.7667 223° Southwest 430 495 36,000  Level Gander Center
Mon 01:39:48 PM 49.0500 -60.9333 228° Southwest 430 495 36,000  Level Gander Center
Mon 01:40:48 PM 48.9667 -61.0333 218° Southwest 430 495 36,000  Level Gander Center
Mon 01:41:48 PM 48.8833 -61.1500 223° Southwest 430 495 36,000  Level Gander Center
Mon 01:42:48 PM 48.8000 -61.2833 227° Southwest 430 495 36,000  Level Gander Center
Mon 01:43:48 PM 48.7167 -61.4167 227° Southwest 440 506 36,000  Level Gander Center
Mon 01:44:48 PM 48.6167 -61.5333 218° Southwest 430 495 36,000  Level Gander Center
Mon 01:45:48 PM 48.5333 -61.6667 227° Southwest 440 506 36,000  Level Gander Center
Mon 01:46:48 PM 48.4500 -61.8167 230° Southwest 430 495 36,000  Level Gander Center
Mon 01:47:48 PM 48.3667 -61.9167 219° Southwest 430 495 36,000  Level Gander Center
Mon 01:48:48 PM 48.2833 -62.0333 223° Southwest 430 495 36,000  Level Gander Center
Mon 01:49:48 PM 48.1833 -62.1833 225° Southwest 430 495 36,000  Level Gander Center
Mon 01:50:48 PM 48.1000 -62.2833 219° Southwest 420 483 36,000  Level Gander Center
Mon 01:51:48 PM 48.0000 -62.4000 218° Southwest 420 483 36,000  Level Gander Center
Mon 01:52:48 PM 47.9167 -62.5333 227° Southwest 430 495 36,000  Level Gander Center
Mon 01:53:48 PM 47.8333 -62.6500 223° Southwest 430 495 36,000  Level Gander Center
Mon 01:54:48 PM 47.7500 -62.7667 223° Southwest 420 483 36,000  Level Gander Center
Mon 01:55:48 PM 47.6667 -62.9000 227° Southwest 410 472 36,000  Level Gander Center
Mon 01:56:48 PM 47.5833 -63.0167 223° Southwest 420 483 36,000  Level Gander Center
Mon 01:57:48 PM 47.5000 -63.1167 219° Southwest 420 483 36,000  Level Gander Center
Mon 01:58:48 PM 47.4167 -63.2333 223° Southwest 420 483 36,000  Level Gander Center
Mon 01:59:48 PM 47.3333 -63.3500 224° Southwest 410 472 36,000  Level Gander Center
Mon 02:00:48 PM 47.2333 -63.4667 218° Southwest 410 472 36,000  Level Gander Center
Mon 02:01:48 PM 47.1500 -63.5833 224° Southwest 420 483 36,000  Level Gander Center
Mon 02:02:48 PM 47.0667 -63.7167 227° Southwest 410 472 36,000  Level Gander Center
Mon 02:03:48 PM 46.9833 -63.8000 214° Southwest 420 483 36,000  Level Gander Center
Mon 02:04:48 PM 46.9000 -63.9167 224° Southwest 420 483 36,000  Level Gander Center
Mon 02:05:48 PM 46.8167 -64.0333 224° Southwest 410 472 36,000  Level Gander Center
Mon 02:06:48 PM 46.7167 -64.1333 214° Southwest 410 472 36,000  Level Gander Center
Mon 02:07:48 PM 46.6333 -64.2500 224° Southwest 410 472 36,000  Level Gander Center
Mon 02:08:48 PM 46.5500 -64.3667 224° Southwest 410 472 36,000  Level Gander Center
Mon 02:09:48 PM 46.4667 -64.4833 224° Southwest 410 472 36,000  Level Gander Center
Mon 02:10:48 PM 46.3833 -64.5667 215° Southwest 410 472 36,000  Level Gander Center
Mon 02:16:12 PM 45.9290 -65.1840 215° Southwest 417 480 36,000  Level FlightAware ADS-B
Mon 02:16:44 PM 45.8820 -65.2410 220° Southwest 416 479 36,000  Level FlightAware ADS-B
Mon 02:17:19 PM 45.8300 -65.3070 221° Southwest 417 480 36,000  Level FlightAware ADS-B
Mon 02:17:56 PM 45.7780 -65.3710 221° Southwest 417 480 36,000  Level FlightAware ADS-B
Mon 02:18:32 PM 45.7240 -65.4370 220° Southwest 419 482 36,000  Level FlightAware ADS-B
Mon 02:19:05 PM 45.6750 -65.4980 221° Southwest 420 483 36,000  Level FlightAware ADS-B
Mon 02:19:41 PM 45.6210 -65.5640 221° Southwest 420 483 36,000  Level FlightAware ADS-B
Mon 02:20:16 PM 45.5700 -65.6260 220° Southwest 419 482 36,000  Level FlightAware ADS-B
Mon 02:20:46 PM 45.5270 -65.6790 221° Southwest 418 481 36,000  Level FlightAware ADS-B
Mon 02:21:28 PM 45.4660 -65.7540 221° Southwest 414 476 36,000  Level FlightAware ADS-B
Mon 02:22:00 PM 45.4210 -65.8090 221° Southwest 413 475 36,000  Level FlightAware ADS-B
Mon 02:22:36 PM 45.3660 -65.8750 220° Southwest 414 476 36,000  Level FlightAware ADS-B
Mon 02:23:06 PM 45.3240 -65.9250 220° Southwest 408 470 36,000  Level FlightAware ADS-B
Mon 02:23:41 PM 45.2730 -65.9870 221° Southwest 408 470 36,000  Level FlightAware ADS-B
Mon 02:24:16 PM 45.2230 -66.0480 221° Southwest 407 468 36,000  Level FlightAware ADS-B
Mon 02:24:56 PM 45.1640 -66.1180 220° Southwest 406 467 36,000  Level FlightAware ADS-B
Mon 02:25:32 PM 45.1120 -66.1800 220° Southwest 408 470 36,000  Level FlightAware ADS-B
Mon 02:26:07 PM 45.0600 -66.2420 220° Southwest 408 470 36,000  Level FlightAware ADS-B
Mon 02:26:43 PM 45.0080 -66.3040 220° Southwest 408 470 36,000  Level FlightAware ADS-B
Mon 02:27:18 PM 44.9580 -66.3640 220° Southwest 407 468 36,000  Level FlightAware ADS-B
Mon 02:27:58 PM 44.8990 -66.4350 220° Southwest 405 466 36,000  Level FlightAware ADS-B
Mon 02:28:38 PM 44.8400 -66.5040 220° Southwest 405 466 36,000  Level FlightAware ADS-B
Mon 02:29:08 PM 44.7970 -66.5550 220° Southwest 405 466 36,000  Level FlightAware ADS-B
Mon 02:29:43 PM 44.7450 -66.6160 220° Southwest 404 465 36,000  Level FlightAware ADS-B
Mon 02:30:18 PM 44.6950 -66.6750 220° Southwest 404 465 36,000  Level FlightAware ADS-B
Mon 02:30:54 PM 44.6440 -66.7350 220° Southwest 403 464 36,000  Level FlightAware ADS-B
Mon 02:31:28 PM 44.5940 -66.7930 220° Southwest 402 463 36,000  Level FlightAware ADS-B
Mon 02:32:03 PM 44.5430 -66.8530 220° Southwest 400 460 36,000  Level FlightAware ADS-B
Mon 02:32:38 PM 44.4930 -66.9110 220° Southwest 399 459 36,000  Level FlightAware ADS-B
Mon 02:33:13 PM 44.4420 -66.9710 220° Southwest 403 464 36,000  Level FlightAware ADS-B
Mon 02:33:47 PM 44.3940 -67.0300 221° Southwest 405 466 36,000  Level FlightAware ADS-B
Mon 02:34:24 PM 44.3480 -67.0940 225° Southwest 406 467 36,000  Level FlightAware ADS-B
Mon 02:34:57 PM 44.3010 -67.1590 225° Southwest 406 467 36,000  Level FlightAware ADS-B
Mon 02:35:33 PM 44.2540 -67.2240 225° Southwest 404 465 36,000  Level FlightAware ADS-B
Mon 02:36:07 PM 44.2070 -67.2870 224° Southwest 403 464 36,000  Level FlightAware ADS-B
Mon 02:36:43 PM 44.1600 -67.3510 224° Southwest 403 464 36,000  Level FlightAware ADS-B
Mon 02:37:18 PM 44.1130 -67.4160 225° Southwest 404 465 36,000  Level FlightAware ADS-B
Mon 02:38:04 PM 44.0520 -67.4990 224° Southwest 404 465 36,000  Level FlightAware ADS-B
Mon 02:38:44 PM 43.9990 -67.5700 224° Southwest 403 464 36,000  Level FlightAware ADS-B
Mon 02:39:28 PM 43.9380 -67.6520 224° Southwest 402 463 36,000  Level FlightAware ADS-B
Mon 02:40:15 PM 43.8790 -67.7320 224° Southwest 403 464 36,000  Level FlightAware ADS-B
Mon 02:40:57 PM 43.8240 -67.8070 225° Southwest 402 463 36,000  Level FlightAware ADS-B
Mon 02:41:31 PM 43.7760 -67.8700 223° Southwest 401 461 36,000  Level FlightAware ADS-B
Mon 02:42:01 PM 43.7350 -67.9250 224° Southwest 400 460 36,000  Level FlightAware ADS-B
Mon 02:42:50 PM 43.6700 -68.0120 224° Southwest 399 459 36,000  Level FlightAware ADS-B
Mon 02:43:27 PM 43.6230 -68.0740 224° Southwest 399 459 36,000  Level FlightAware ADS-B
Mon 02:44:02 PM 43.5760 -68.1360 224° Southwest 399 459 36,000  Level FlightAware ADS-B
Mon 02:44:36 PM 43.5300 -68.1980 224° Southwest 399 459 36,000  Level FlightAware ADS-B
Mon 02:45:12 PM 43.4830 -68.2590 223° Southwest 398 458 36,000  Level FlightAware ADS-B
Mon 02:46:00 PM 43.4250 -68.3340 223° Southwest 398 458 36,000  Level FlightAware ADS-B
Mon 02:48:29 PM 43.2220 -68.6010 223° Southwest 388 447 36,000  Level FlightAware ADS-B
Mon 02:49:03 PM 43.1850 -68.6500 224° Southwest 388 447 36,000  Level FlightAware ADS-B
Mon 02:49:38 PM 43.1300 -68.7200 223° Southwest 387 445 36,000  Level FlightAware ADS-B
Mon 02:50:13 PM 43.0880 -68.7750 224° Southwest 388 447 36,000  Level FlightAware ADS-B
Mon 02:50:48 PM 43.0400 -68.8370 223° Southwest 386 444 36,000  Level FlightAware ADS-B
Mon 02:51:24 PM 42.9940 -68.8970 224° Southwest 385 443 36,000  Level FlightAware ADS-B
Mon 02:51:53 PM 42.9530 -68.9490 223° Southwest 386 444 36,000  Level FlightAware ADS-B
Mon 02:52:48 PM 42.8820 -69.0400 223° Southwest 386 444 36,000  Level FlightAware ADS-B
Mon 02:53:28 PM 42.8310 -69.1060 224° Southwest 394 453 36,000  Level FlightAware ADS-B
Mon 02:54:03 PM 42.7840 -69.1650 223° Southwest 394 453 36,000  Level FlightAware ADS-B
Mon 02:54:38 PM 42.7350 -69.2280 223° Southwest 394 453 36,000  Level FlightAware ADS-B
Mon 02:55:13 PM 42.6890 -69.2870 223° Southwest 393 452 36,000  Level FlightAware ADS-B
Mon 02:55:58 PM 42.6300 -69.3610 223° Southwest 392 451 36,000  Level FlightAware ADS-B
Mon 02:56:30 PM 42.5900 -69.4110 223° Southwest 385 443 36,000  Level FlightAware ADS-B
Mon 02:57:13 PM 42.5290 -69.4890 223° Southwest 393 452 36,000  Level FlightAware ADS-B
Mon 02:57:49 PM 42.4810 -69.5490 223° Southwest 392 451 36,000  Level FlightAware ADS-B
Mon 02:58:31 PM 42.4280 -69.6160 223° Southwest 382 440 36,000  Level FlightAware ADS-B
Mon 02:59:04 PM 42.3820 -69.6730 222° Southwest 380 437 36,000  Level FlightAware ADS-B
Mon 02:59:39 PM 42.3360 -69.7310 223° Southwest 381 438 36,000  Level FlightAware ADS-B
Mon 03:00:14 PM 42.2910 -69.7870 223° Southwest 381 438 36,000  Level FlightAware ADS-B
Mon 03:00:49 PM 42.2440 -69.8460 223° Southwest 382 440 36,000  Level FlightAware ADS-B
Mon 03:01:24 PM 42.1980 -69.9020 222° Southwest 390 449 36,000  Level FlightAware ADS-B
Mon 03:01:59 PM 42.1510 -69.9610 223° Southwest 392 451 36,000  Level FlightAware ADS-B
Mon 03:02:19 PM 42.1240 -69.9940 222° Southwest 394 453 36,000  Level FlightAware ADS-B
Mon 03:03:04 PM 42.0660 -70.0660 223° Southwest 381 438 36,000  Level FlightAware ADS-B
Mon 03:03:55 PM 41.9990 -70.1490 223° Southwest 380 437 36,000  Level FlightAware ADS-B
Mon 03:04:40 PM 41.9450 -70.2140 222° Southwest 382 440 36,000  Level FlightAware ADS-B
Mon 03:05:09 PM 41.9030 -70.2720 226° Southwest 390 449 36,000  Level FlightAware ADS-B
Mon 03:05:49 PM 41.8600 -70.3470 232° Southwest 385 443 36,000  Level FlightAware ADS-B
Mon 03:06:29 PM 41.8180 -70.4220 233° Southwest 390 449 36,000  Level FlightAware ADS-B
Mon 03:07:10 PM 41.7740 -70.4960 231° Southwest 390 449 36,000  Level FlightAware ADS-B
Mon 03:07:44 PM 41.7320 -70.5690 232° Southwest 389 448 36,000  Level FlightAware ADS-B
Mon 03:08:20 PM 41.6970 -70.6290 232° Southwest 392 451 36,000  Level FlightAware ADS-B
Mon 03:08:54 PM 41.6570 -70.6970 232° Southwest 394 453 36,000  Level FlightAware ADS-B
Mon 03:09:25 PM 41.6220 -70.7570 232° Southwest 395 455 36,000  Level FlightAware ADS-B
Mon 03:09:55 PM 41.5850 -70.8200 232° Southwest 396 456 36,000  Level FlightAware ADS-B
Mon 03:10:25 PM 41.5540 -70.8730 232° Southwest 396 456 36,000  Level FlightAware ADS-B
Mon 03:11:00 PM 41.5120 -70.9450 232° Southwest 395 455 36,000  Level FlightAware ADS-B
Mon 03:11:35 PM 41.4720 -71.0120 231° Southwest 395 455 36,000  Level FlightAware ADS-B
Mon 03:12:20 PM 41.4220 -71.0980 232° Southwest 394 453 36,000  Level FlightAware ADS-B
Mon 03:12:55 PM 41.3820 -71.1630 231° Southwest 392 451 36,000  Level FlightAware ADS-B
Mon 03:13:35 PM 41.3380 -71.2380 232° Southwest 389 448 36,000  Level FlightAware ADS-B
Mon 03:14:15 PM 41.2930 -71.3130 231° Southwest 388 447 36,000  Level FlightAware ADS-B
Mon 03:15:06 PM 41.2430 -71.3970 232° Southwest 385 443 36,000  Level FlightAware ADS-B
Mon 03:15:54 PM 41.1880 -71.4880 231° Southwest 382 440 36,000  Level FlightAware ADS-B
Mon 03:16:33 PM 41.1389 -71.5712 232° Southwest 383 441 36,000  Level FlightAware ADS-B
Mon 03:17:18 PM 41.0865 -71.6481 228° Southwest 378 435 36,000  Level FlightAware ADS-B
Mon 03:17:56 PM 41.0409 -71.7114 226° Southwest 376 433 36,000  Level FlightAware ADS-B
Mon 03:18:28 PM 41.0029 -71.7642 226° Southwest 376 433 36,000  Level FlightAware ADS-B
Mon 03:19:33 PM 40.9240 -71.8731 226° Southwest 374 430 36,000  Level FlightAware ADS-B
Mon 03:20:31 PM 40.8570 -71.9660 226° Southwest 372 428 36,000  Level FlightAware ADS-B
Mon 03:20:47 PM 40.8360 -71.9942 225° Southwest 373 429 36,000  Level FlightAware ADS-B
Mon 03:21:40 PM 40.7740 -72.0790 226° Southwest 371 427 36,000  Level FlightAware ADS-B
Mon 03:21:57 PM 40.7532 -72.1078 226° Southwest 372 428 36,000  Level FlightAware ADS-B
Mon 03:22:29 PM 40.7154 -72.1595 226° Southwest 372 428 36,000  Level FlightAware ADS-B
Mon 03:23:04 PM 40.6741 -72.2159 226° Southwest 372 428 36,000  Level FlightAware ADS-B
Mon 03:23:56 PM 40.6113 -72.3015 226° Southwest 372 428 36,000  Level FlightAware ADS-B
Mon 03:24:30 PM 40.5720 -72.3550 226° Southwest 368 423 36,000  Level FlightAware ADS-B
Mon 03:25:06 PM 40.5290 -72.4130 226° Southwest 368 423 36,000  Level FlightAware ADS-B
Mon 03:25:40 PM 40.4890 -72.4680 226° Southwest 369 425 36,000  Level FlightAware ADS-B
Mon 03:26:10 PM 40.4522 -72.5170 225° Southwest 369 425 36,000  Level FlightAware ADS-B
Mon 03:26:52 PM 40.4030 -72.5830 226° Southwest 370 426 36,000  Level FlightAware ADS-B
Mon 03:27:11 PM 40.3803 -72.6140 226° Southwest 370 426 36,000  Level FlightAware ADS-B
Mon 03:27:42 PM 40.3436 -72.6633 226° Southwest 367 422 36,000  Level FlightAware ADS-B
Mon 03:28:14 PM 40.3057 -72.7140 226° Southwest 367 422 36,000  Level FlightAware ADS-B
Mon 03:28:44 PM 40.2693 -72.7629 226° Southwest 368 423 36,000  Level FlightAware ADS-B
Mon 03:29:15 PM 40.2329 -72.8116 226° Southwest 370 426 36,000  Level FlightAware ADS-B
Mon 03:29:48 PM 40.1931 -72.8647 226° Southwest 371 427 36,000  Level FlightAware ADS-B
Mon 03:30:20 PM 40.1550 -72.9154 225° Southwest 371 427 36,000  Level FlightAware ADS-B
Mon 03:30:50 PM 40.1189 -72.9634 225° Southwest 371 427 36,000  Level FlightAware ADS-B
Mon 03:31:34 PM 40.0663 -73.0334 226° Southwest 373 429 36,000  Level FlightAware ADS-B
Mon 03:32:06 PM 40.0269 -73.0855 225° Southwest 375 432 36,000  Level FlightAware ADS-B
Mon 03:32:41 PM 39.9849 -73.1411 225° Southwest 375 432 36,000  Level FlightAware ADS-B
Mon 03:33:11 PM 39.9482 -73.1895 225° Southwest 377 434 36,000  Level FlightAware ADS-B
Mon 03:33:46 PM 39.9055 -73.2460 225° Southwest 378 435 36,000  Level FlightAware ADS-B
Mon 03:34:25 PM 39.8584 -73.3082 225° Southwest 378 435 36,000  Level FlightAware ADS-B
Mon 03:34:57 PM 39.8189 -73.3603 225° Southwest 376 433 36,000  Level FlightAware ADS-B
Mon 03:35:33 PM 39.7750 -73.4179 225° Southwest 375 432 36,000  Level FlightAware ADS-B
Mon 03:36:20 PM 39.7177 -73.4929 225° Southwest 375 432 36,000  Level FlightAware ADS-B
Mon 03:36:51 PM 39.6796 -73.5427 225° Southwest 376 433 36,000  Level FlightAware ADS-B
Mon 03:37:23 PM 39.6403 -73.5940 225° Southwest 378 435 36,000  Level FlightAware ADS-B
Mon 03:37:59 PM 39.5953 -73.6526 225° Southwest 379 436 36,000  Level FlightAware ADS-B
Mon 03:38:30 PM 39.5568 -73.7027 225° Southwest 380 437 36,000  Level FlightAware ADS-B
Mon 03:39:02 PM 39.5177 -73.7535 225° Southwest 380 437 36,000  Level FlightAware ADS-B
Mon 03:39:33 PM 39.4799 -73.8024 225° Southwest 379 436 36,000  Level FlightAware ADS-B
Mon 03:40:11 PM 39.4342 -73.8616 225° Southwest 378 435 36,000  Level FlightAware ADS-B
Mon 03:40:42 PM 39.3947 -73.9127 225° Southwest 378 435 36,000  Level FlightAware ADS-B
Mon 03:41:15 PM 39.3537 -73.9656 225° Southwest 378 435 36,000  Level FlightAware ADS-B
Mon 03:41:46 PM 39.3152 -74.0150 225° Southwest 378 435 36,000  Level FlightAware ADS-B
Mon 03:42:17 PM 39.2773 -74.0638 225° Southwest 378 435 36,000  Level FlightAware ADS-B
Mon 03:42:47 PM 39.2396 -74.1121 225° Southwest 377 434 36,000  Level FlightAware ADS-B
Mon 03:43:18 PM 39.2009 -74.1617 225° Southwest 377 434 36,000  Level FlightAware ADS-B
Mon 03:43:51 PM 39.1610 -74.2126 225° Southwest 378 435 36,000  Level FlightAware ADS-B
Mon 03:44:23 PM 39.1210 -74.2637 225° Southwest 379 436 36,000  Level FlightAware ADS-B
Mon 03:44:54 PM 39.0822 -74.3131 225° Southwest 379 436 36,000  Level FlightAware ADS-B
Mon 03:45:26 PM 39.0426 -74.3636 225° Southwest 380 437 36,000  Level FlightAware ADS-B
Mon 03:45:56 PM 39.0051 -74.4112 225° Southwest 380 437 36,000  Level FlightAware ADS-B
Mon 03:46:26 PM 38.9669 -74.4596 225° Southwest 380 437 36,000  Level FlightAware ADS-B
Mon 03:46:58 PM 38.9274 -74.5096 225° Southwest 381 438 36,000  Level FlightAware ADS-B
Mon 03:47:28 PM 38.8898 -74.5573 225° Southwest 381 438 36,000  Level FlightAware ADS-B
Mon 03:48:19 PM 38.8258 -74.6380 225° Southwest 383 441 36,000  Level FlightAware ADS-B
Mon 03:48:49 PM 38.7874 -74.6864 225° Southwest 385 443 36,000  Level FlightAware ADS-B
Mon 03:49:16 PM 38.7536 -74.7286 224° Southwest 386 444 36,000  Level FlightAware ADS-B
Mon 03:49:46 PM 38.7118 -74.7733 220° Southwest 387 445 36,000  Level FlightAware ADS-B
Mon 03:50:42 PM 38.6344 -74.8563 220° Southwest 388 447 36,000  Level FlightAware ADS-B
Mon 03:51:18 PM 38.5856 -74.9083 220° Southwest 389 448 36,000  Level FlightAware ADS-B
Mon 03:51:48 PM 38.5435 -74.9528 220° Southwest 391 450 36,000  Level FlightAware ADS-B
Mon 03:52:18 PM 38.5050 -74.9940 220° Southwest 394 453 36,000  Level FlightAware ADS-B
Mon 03:52:57 PM 38.4468 -75.0551 219° Southwest 393 452 36,000  Level FlightAware ADS-B
Mon 03:53:27 PM 38.4040 -75.1003 220° Southwest 398 458 36,000  Level FlightAware ADS-B
Mon 03:54:01 PM 38.3563 -75.1505 220° Southwest 398 458 36,000  Level FlightAware ADS-B
Mon 03:54:31 PM 38.3136 -75.1954 220° Southwest 398 458 36,000  Level FlightAware ADS-B
Mon 03:55:22 PM 38.2450 -75.2670 219° Southwest 400 460 36,000  Level FlightAware ADS-B
Mon 03:55:37 PM 38.2200 -75.2890 215° Southwest 400 460 36,000  Level FlightAware ADS-B
Mon 03:55:52 PM 38.1942 -75.3076 210° Southwest 400 460 36,000  Level FlightAware ADS-B
Mon 03:55:58 PM 38.1838 -75.3148 209° Southwest 402 463 36,000  Level FlightAware ADS-B
Mon 03:56:30 PM 38.1317 -75.3512 209° Southwest 402 463 36,000  Level FlightAware ADS-B
Mon 03:57:06 PM 38.0734 -75.3921 209° Southwest 402 463 36,000  Level FlightAware ADS-B
Mon 03:57:37 PM 38.0221 -75.4281 209° Southwest 402 463 36,000  Level FlightAware ADS-B
Mon 03:58:36 PM 37.9310 -75.4920 209° Southwest 402 463 36,000  Level FlightAware ADS-B
Mon 03:58:50 PM 37.9030 -75.5119 209° Southwest 402 463 36,000  Level FlightAware ADS-B
Mon 03:59:24 PM 37.8484 -75.5501 209° Southwest 402 463 36,000  Level FlightAware ADS-B
Mon 03:59:55 PM 37.7983 -75.5851 209° Southwest 404 465 36,000  Level FlightAware ADS-B
Mon 04:00:25 PM 37.7484 -75.6199 209° Southwest 403 464 36,000  Level FlightAware ADS-B
Mon 04:01:01 PM 37.6904 -75.6605 209° Southwest 404 465 36,000  Level FlightAware ADS-B
Mon 04:01:36 PM 37.6334 -75.7001 209° Southwest 405 466 36,000  Level FlightAware ADS-B
Mon 04:02:45 PM 37.5250 -75.7750 209° Southwest 407 468 36,000  Level FlightAware ADS-B
Mon 04:03:15 PM 37.4760 -75.8090 209° Southwest 408 470 36,000  Level FlightAware ADS-B
Mon 04:03:50 PM 37.4180 -75.8490 209° Southwest 408 470 36,000  Level FlightAware ADS-B
Mon 04:04:25 PM 37.3570 -75.8910 209° Southwest 402 463 36,000  Level FlightAware ADS-B
Mon 04:04:57 PM 37.3006 -75.9303 209° Southwest 410 472 36,000  Level FlightAware ADS-B
Mon 04:05:29 PM 37.2482 -75.9664 209° Southwest 410 472 36,000  Level FlightAware ADS-B
Mon 04:05:59 PM 37.1967 -76.0017 209° Southwest 412 474 36,000  Level FlightAware ADS-B
Mon 04:06:55 PM 37.1070 -76.0630 209° Southwest 415 478 36,000  Level FlightAware ADS-B
Mon 04:07:06 PM 37.0849 -76.0783 209° Southwest 413 475 36,000  Level FlightAware ADS-B
Mon 04:07:39 PM 37.0285 -76.1168 209° Southwest 417 480 36,000  Level FlightAware ADS-B
Mon 04:08:11 PM 36.9755 -76.1530 209° Southwest 417 480 36,000  Level FlightAware ADS-B
Mon 04:08:53 PM 36.9046 -76.2013 209° Southwest 417 480 36,000  Level FlightAware ADS-B
Mon 04:09:29 PM 36.8415 -76.2441 208° Southwest 418 481 36,000  Level FlightAware ADS-B
Mon 04:10:16 PM 36.7790 -76.2870 209° Southwest 418 481 36,000  Level FlightAware ADS-B
Mon 04:12:01 PM 36.5980 -76.4090 208° Southwest 418 481 36,000  Level FlightAware ADS-B
Mon 04:12:28 PM 36.5470 -76.4460 210° Southwest 416 479 36,000  Level FlightAware ADS-B
Mon 04:13:05 PM 36.4870 -76.5100 221° Southwest 414 476 36,000  Level FlightAware ADS-B
Mon 04:13:40 PM 36.4400 -76.5600 221° Southwest 415 478 36,000  Level FlightAware ADS-B
Mon 04:14:15 PM 36.3900 -76.6120 220° Southwest 409 471 36,000  Level FlightAware ADS-B
Mon 04:14:52 PM 36.3460 -76.6610 222° Southwest 409 471 36,000  Level FlightAware ADS-B
Mon 04:15:37 PM 36.2758 -76.7283 222° Southwest 421 484 36,000  Level Washington Center
Mon 04:19:54 PM 35.8780 -77.1380 222° Southwest 424 488 36,000  Level FlightAware ADS-B
Mon 04:21:32 PM 35.7420 -77.2760 219° Southwest 429 494 36,000  Level FlightAware ADS-B
Mon 04:22:06 PM 35.6970 -77.3200 218° Southwest 429 494 36,000  Level FlightAware ADS-B
Mon 04:22:42 PM 35.6500 -77.3670 219° Southwest 429 494 36,000  Level FlightAware ADS-B
Mon 04:23:25 PM 35.5940 -77.4240 220° Southwest 429 494 36,000  Level FlightAware ADS-B
Mon 04:24:02 PM 35.5450 -77.4720 219° Southwest 429 494 36,000  Level FlightAware ADS-B
Mon 04:24:38 PM 35.4980 -77.5190 219° Southwest 429 494 36,000  Level FlightAware ADS-B
Mon 04:25:14 PM 35.4510 -77.5660 219° Southwest 429 494 36,000  Level FlightAware ADS-B
Mon 04:25:50 PM 35.4040 -77.6130 219° Southwest 429 494 36,000  Level FlightAware ADS-B
Mon 04:26:24 PM 35.3590 -77.6570 219° Southwest 429 494 36,000  Level FlightAware ADS-B
Mon 04:27:00 PM 35.3120 -77.7040 219° Southwest 429 494 36,000  Level FlightAware ADS-B
Mon 04:27:36 PM 35.2650 -77.7510 219° Southwest 429 494 36,000  Level FlightAware ADS-B
Mon 04:28:13 PM 35.2160 -77.7990 219° Southwest 429 494 36,000  Level FlightAware ADS-B
Mon 04:28:50 PM 35.1680 -77.8470 219° Southwest 429 494 36,000  Level FlightAware ADS-B
Mon 04:29:26 PM 35.1200 -77.8930 218° Southwest 429 494 36,000  Level FlightAware ADS-B
Mon 04:30:03 PM 35.0720 -77.9410 219° Southwest 429 494 36,000  Level FlightAware ADS-B
Mon 04:30:37 PM 35.0270 -77.9860 219° Southwest 429 494 36,000  Level FlightAware ADS-B
Mon 04:31:09 PM 34.9240 -78.3140 249° West 438 504 36,000  Level FlightAware ADS-B
Mon 04:31:49 PM 34.8740 -78.3920 232° Southwest 438 504 36,000  Level FlightAware ADS-B
Mon 04:32:21 PM 34.8360 -78.4550 234° Southwest 439 505 36,000  Level FlightAware ADS-B
Mon 04:32:57 PM 34.7920 -78.5290 234° Southwest 439 505 36,000  Level FlightAware ADS-B
Mon 04:33:29 PM 34.7540 -78.5930 234° Southwest 441 507 36,000  Level FlightAware ADS-B
Mon 04:34:07 PM 34.7100 -78.6640 233° Southwest 442 509 36,000  Level FlightAware ADS-B
Mon 04:34:47 PM 34.6650 -78.7310 231° Southwest 442 509 36,000  Level FlightAware ADS-B
Mon 04:35:22 PM 34.5910 -78.7880 212° Southwest 450 518 36,000  Level FlightAware ADS-B
Mon 04:35:58 PM 34.5270 -78.8370 212° Southwest 452 520 36,000  Level FlightAware ADS-B
Mon 04:36:33 PM 34.4710 -78.8820 214° Southwest 456 525 36,000  Level FlightAware ADS-B
Mon 04:37:16 PM 34.3890 -78.9450 212° Southwest 460 529 36,000  Level FlightAware ADS-B
Mon 04:37:48 PM 34.3380 -78.9800 210° Southwest 464 534 36,000  Level FlightAware ADS-B
Mon 04:38:28 PM 34.2590 -79.0430 213° Southwest 465 535 36,000  Level FlightAware ADS-B
Mon 04:39:08 PM 34.1870 -79.1020 214° Southwest 464 534 36,000  Level FlightAware ADS-B
Mon 04:39:48 PM 34.1200 -79.1620 217° Southwest 464 534 36,000  Level FlightAware ADS-B
Mon 04:40:23 PM 34.0610 -79.2210 220° Southwest 462 532 36,000  Level FlightAware ADS-B
Mon 04:40:58 PM 34.0040 -79.2770 219° Southwest 460 529 36,000  Level FlightAware ADS-B
Mon 04:41:33 PM 33.9470 -79.3330 219° Southwest 459 528 36,000  Level FlightAware ADS-B
Mon 04:42:08 PM 33.8900 -79.3910 220° Southwest 447 514 36,000  Level FlightAware ADS-B
Mon 04:42:43 PM 33.8470 -79.4530 230° Southwest 439 505 36,000  Level FlightAware ADS-B
Mon 04:43:18 PM 33.8090 -79.5310 240° Southwest 436 502 36,000  Level FlightAware ADS-B
Mon 04:43:53 PM 33.7750 -79.6050 241° Southwest 434 499 36,000  Level FlightAware ADS-B
Mon 04:44:28 PM 33.7390 -79.6810 240° Southwest 437 503 36,000  Level FlightAware ADS-B
Mon 04:45:03 PM 33.7040 -79.7520 239° Southwest 442 509 36,000  Level FlightAware ADS-B
Mon 04:45:38 PM 33.6680 -79.8290 241° Southwest 449 517 36,000  Level FlightAware ADS-B
Mon 04:46:13 PM 33.6320 -79.9050 240° Southwest 455 524 36,000  Level FlightAware ADS-B
Mon 04:46:48 PM 33.5910 -79.9740 235° Southwest 453 521 36,000  Level FlightAware ADS-B
Mon 04:47:23 PM 33.5310 -80.0290 217° Southwest 455 524 36,000  Level FlightAware ADS-B
Mon 04:47:38 PM 33.5090 -80.0430 208° Southwest 455 524 36,000  Level FlightAware ADS-B
Mon 04:48:13 PM 33.4320 -80.0670 195° South 457 526 36,000  Level FlightAware ADS-B
Mon 04:48:48 PM 33.3590 -80.0860 192° South 458 527 36,000  Level FlightAware ADS-B
Mon 04:49:23 PM 33.2890 -80.1070 194° South 460 529 36,000  Level FlightAware ADS-B
Mon 04:49:58 PM 33.2140 -80.1350 197° South 468 539 36,000  Level FlightAware ADS-B
Mon 04:50:33 PM 33.1460 -80.1610 198° South 473 544 36,000  Level FlightAware ADS-B
Mon 04:51:08 PM 33.0670 -80.1880 196° South 477 549 36,000  Level FlightAware ADS-B
Mon 04:51:43 PM 32.9920 -80.2070 192° South 480 552 36,000  Level FlightAware ADS-B
Mon 04:52:18 PM 32.9140 -80.2270 192° South 487 560 36,000  Level FlightAware ADS-B
Mon 04:52:58 PM 32.8280 -80.2490 192° South 485 558 36,000  Level FlightAware ADS-B
Mon 04:53:33 PM 32.7510 -80.2690 192° South 484 557 36,000  Level FlightAware ADS-B
Mon 04:54:08 PM 32.6730 -80.2880 192° South 481 554 36,000  Level FlightAware ADS-B
Mon 04:54:43 PM 32.6000 -80.3070 192° South 479 551 36,000  Level FlightAware ADS-B
Mon 04:55:18 PM 32.5250 -80.3260 192° South 482 555 36,000  Level FlightAware ADS-B
Mon 04:55:53 PM 32.4470 -80.3460 192° South 484 557 36,000  Level FlightAware ADS-B
Mon 04:56:28 PM 32.3740 -80.3640 192° South 483 556 36,000  Level FlightAware ADS-B
Mon 04:57:03 PM 32.2900 -80.3850 192° South 489 563 36,000  Level FlightAware ADS-B
Mon 04:57:38 PM 32.2140 -80.4040 192° South 494 568 36,000  Level FlightAware ADS-B
Mon 04:58:18 PM 32.1250 -80.4270 192° South 492 566 36,000  Level FlightAware ADS-B
Mon 04:58:48 PM 32.0620 -80.4420 191° South 493 567 36,000  Level FlightAware ADS-B
Mon 04:59:31 PM 31.9770 -80.4640 192° South 495 570 36,000  Level FlightAware ADS-B
Mon 05:00:26 PM 31.8540 -80.4940 192° South 493 567 36,000  Level FlightAware ADS-B
Mon 05:01:04 PM 31.7770 -80.5130 192° South 494 568 36,000  Level FlightAware ADS-B
Mon 05:01:39 PM 31.6940 -80.5340 192° South 494 568 36,000  Level FlightAware ADS-B
Mon 05:02:09 PM 31.6180 -80.5530 192° South 497 572 36,000  Level FlightAware ADS-B
Mon 05:03:08 PM 31.4850 -80.5860 192° South 499 574 36,000  Level FlightAware ADS-B
Mon 05:03:44 PM 31.4160 -80.6030 192° South 499 574 36,000  Level FlightAware ADS-B
Mon 05:04:20 PM 31.3470 -80.6200 192° South 499 574 36,000  Level FlightAware ADS-B
Mon 05:05:00 PM 31.2330 -80.6480 192° South 500 575 36,000  Level FlightAware ADS-B
Mon 05:05:44 PM 31.1390 -80.6700 191° South 498 573 36,000  Level FlightAware ADS-B
Mon 05:06:21 PM 31.0680 -80.6860 191° South 498 573 36,000  Level FlightAware ADS-B
Mon 05:06:57 PM 30.9990 -80.7020 191° South 498 573 36,000  Level FlightAware ADS-B
Mon 05:07:33 PM 30.9290 -80.7170 190° South 498 573 36,000  Level FlightAware ADS-B
Mon 05:08:09 PM 30.8600 -80.7330 191° South 498 573 36,000  Level FlightAware ADS-B
Mon 05:08:45 PM 30.7910 -80.7490 191° South 498 573 36,000  Level FlightAware ADS-B
Mon 05:09:21 PM 30.7220 -80.7640 191° South 498 573 36,000  Level FlightAware ADS-B
Mon 05:09:57 PM 30.6520 -80.7800 191° South 498 573 36,000  Level FlightAware ADS-B
Mon 05:10:33 PM 30.5830 -80.7960 191° South 498 573 36,000  Level FlightAware ADS-B
Mon 05:11:08 PM 30.5160 -80.8110 191° South 498 573 36,000  Level FlightAware ADS-B
Mon 05:12:02 PM 30.2760 -80.7510 184° South 488 562 36,000  Level FlightAware ADS-B
Mon 05:12:41 PM 30.2760 -80.7510 184° South 487 560 36,000  Level FlightAware ADS-B
Mon 05:13:15 PM 30.1080 -80.7620 183° South 487 560 36,000  Level FlightAware ADS-B
Mon 05:14:00 PM 30.0190 -80.7670 183° South 487 560 36,000  Level FlightAware ADS-B
Mon 05:14:36 PM 29.9510 -80.7710 183° South 487 560 36,000  Level FlightAware ADS-B
Mon 05:15:12 PM 29.8820 -80.7750 183° South 487 560 36,000  Level FlightAware ADS-B
Mon 05:15:49 PM 29.8110 -80.7800 183° South 487 560 36,000  Level FlightAware ADS-B
Mon 05:16:25 PM 29.7420 -80.7840 183° South 487 560 36,000  Level FlightAware ADS-B
Mon 05:17:01 PM 29.6730 -80.7880 183° South 487 560 36,000  Level FlightAware ADS-B
Mon 05:17:38 PM 29.6030 -80.7920 183° South 487 560 36,000  Level FlightAware ADS-B
Mon 05:18:12 PM 29.5370 -80.7960 183° South 487 560 36,000  Level FlightAware ADS-B
Mon 05:18:49 PM 29.4670 -80.8000 183° South 487 560 36,000  Level FlightAware ADS-B
Mon 05:19:26 PM 29.3960 -80.8050 184° South 487 560 36,000  Level FlightAware ADS-B
Mon 05:20:04 PM 29.3230 -80.8090 183° South 487 560 36,000  Level FlightAware ADS-B
Mon 05:21:05 PM 29.0550 -80.8290 184° South 470 541 36,000  Level FlightAware ADS-B
Mon 05:21:54 PM 28.9530 -80.8220 177° South 469 540 36,000  Level FlightAware ADS-B
Mon 05:22:30 PM 28.8650 -80.8080 172° South 469 540 36,000  Level FlightAware ADS-B
Mon 05:23:12 PM 28.7690 -80.7950 173° South 476 548 36,000  Level FlightAware ADS-B
Mon 05:23:48 PM 28.6890 -80.7840 173° South 478 550 36,000  Level FlightAware ADS-B
Mon 05:24:24 PM 28.6100 -80.7720 172° South 478 550 36,000  Level FlightAware ADS-B
Mon 05:25:00 PM 28.5320 -80.7600 172° South 476 548 36,000  Level FlightAware ADS-B
Mon 05:25:32 PM 28.4610 -80.7490 172° South 473 544 36,000  Level FlightAware ADS-B
Mon 05:26:05 PM 28.3900 -80.7380 172° South 471 542 36,000  Level FlightAware ADS-B
Mon 05:26:47 PM 28.3110 -80.7260 172° South 469 540 36,000  Level FlightAware ADS-B
Mon 05:27:20 PM 28.2300 -80.7130 172° South 467 537 36,000  Level FlightAware ADS-B
Mon 05:28:02 PM 28.1390 -80.7130 180° South 461 531 36,000  Level FlightAware ADS-B
Mon 05:28:37 PM 28.0640 -80.7170 183° South 457 526 36,000  Level FlightAware ADS-B
Mon 05:29:16 PM 27.9840 -80.7280 187° South 450 518 36,000  Level FlightAware ADS-B
Mon 05:29:54 PM 27.9030 -80.7380 186° South 450 518 36,000 169 Level FlightAware ADS-B
Mon 05:30:27 PM 27.8410 -80.7450 186° South 456 525 36,200 1,000 Climbing FlightAware ADS-B
Mon 05:31:00 PM 27.7640 -80.7540 186° South 449 517 37,100 1,029 Climbing FlightAware ADS-B
Mon 05:32:12 PM 27.6170 -80.7710 186° South 451 519 38,000 514 Climbing FlightAware ADS-B
Mon 05:32:45 PM 27.5480 -80.7790 186° South 449 517 38,000  Level FlightAware ADS-B
Mon 05:33:31 PM 27.4460 -80.7910 186° South 455 524 38,000  Level FlightAware ADS-B
Mon 05:34:03 PM 27.3790 -80.7980 185° South 455 524 38,000  Level FlightAware ADS-B
Mon 05:34:42 PM 27.2940 -80.8080 186° South 457 526 38,000  Level FlightAware ADS-B
Mon 05:35:15 PM 27.2260 -80.8150 185° South 457 526 38,000  Level FlightAware ADS-B
Mon 05:35:51 PM 27.1500 -80.8240 186° South 454 522 38,000  Level FlightAware ADS-B
Mon 05:36:27 PM 27.0760 -80.8330 186° South 453 521 38,000  Level FlightAware ADS-B
Mon 05:36:59 PM 27.0090 -80.8400 185° South 453 521 38,000  Level FlightAware ADS-B
Mon 05:37:41 PM 26.9220 -80.8500 186° South 453 521 38,000  Level FlightAware ADS-B
Mon 05:38:14 PM 26.8570 -80.8570 185° South 455 524 38,000  Level FlightAware ADS-B
Mon 05:38:51 PM 26.7770 -80.8660 186° South 455 524 38,000  Level FlightAware ADS-B
Mon 05:39:28 PM 26.6980 -80.8750 186° South 455 524 38,000  Level FlightAware ADS-B
Mon 05:40:00 PM 26.6290 -80.8830 186° South 454 522 38,000  Level FlightAware ADS-B
Mon 05:40:42 PM 26.5440 -80.8930 186° South 455 524 38,000  Level FlightAware ADS-B
Mon 05:41:18 PM 26.4670 -80.9010 185° South 456 525 38,000  Level FlightAware ADS-B
Mon 05:41:51 PM 26.3990 -80.9090 186° South 452 520 38,000  Level FlightAware ADS-B
Mon 05:42:33 PM 26.3050 -80.9190 185° South 455 524 38,000  Level FlightAware ADS-B
Mon 05:43:13 PM 26.2270 -80.9270 185° South 465 535 38,000  Level FlightAware ADS-B
Mon 05:43:45 PM 26.1570 -80.9220 176° South 455 524 38,000  Level FlightAware ADS-B
Mon 05:44:20 PM 26.0800 -80.9080 171° South 459 528 38,000  Level FlightAware ADS-B
Mon 05:44:55 PM 26.0070 -80.8950 171° South 457 526 38,000  Level FlightAware ADS-B
Mon 05:45:30 PM 25.9340 -80.8810 170° South 458 527 38,000  Level FlightAware ADS-B
Mon 05:46:10 PM 25.8520 -80.8670 171° South 456 525 38,000  Level FlightAware ADS-B
Mon 05:46:55 PM 25.7550 -80.8500 171° South 456 525 38,000  Level FlightAware ADS-B
Mon 05:47:25 PM 25.6940 -80.8400 172° South 458 527 38,000 -86 Level FlightAware ADS-B
Mon 05:48:05 PM 25.6110 -80.8490 186° South 447 514 37,900 -480 Descending FlightAware ADS-B
Mon 05:48:40 PM 25.5370 -80.8700 194° South 451 519 37,400 -917 Descending FlightAware ADS-B
Mon 05:49:17 PM 25.4600 -80.8910 194° South 451 519 36,800 -960 Descending FlightAware ADS-B
Mon 05:49:55 PM 25.3820 -80.9130 194° South 462 532 36,200 -1,040 Descending FlightAware ADS-B
Mon 05:50:32 PM 25.3060 -80.9330 193° South 464 534 35,500 -1,043 Descending FlightAware ADS-B
Mon 05:51:04 PM 25.2370 -80.9520 194° South 467 537 35,000 -971 Descending FlightAware ADS-B
Mon 05:51:40 PM 25.1640 -80.9730 195° South 471 542 34,400 -923 Descending FlightAware ADS-B
Mon 05:51:56 PM 25.1320 -80.9870 202° Southwest 472 543 34,200 -1,000 Descending FlightAware ADS-B
Mon 05:52:28 PM 25.0770 -81.0370 219° Southwest 472 543 33,600 -1,043 Descending FlightAware ADS-B
Mon 05:53:05 PM 25.0260 -81.1090 232° Southwest 477 549 33,000 -957 Descending FlightAware ADS-B
Mon 05:53:37 PM 24.9820 -81.1710 232° Southwest 479 551 32,500 -971 Descending FlightAware ADS-B
Mon 05:54:13 PM 24.9320 -81.2400 231° Southwest 480 552 31,900 -987 Descending FlightAware ADS-B
Mon 05:54:56 PM 24.8700 -81.3250 231° Southwest 477 549 31,200 -975 Descending FlightAware ADS-B
Mon 05:55:33 PM 24.8210 -81.3930 232° Southwest 473 544 30,600 -1,043 Descending FlightAware ADS-B
Mon 05:56:05 PM 24.7780 -81.4540 232° Southwest 471 542 30,000 -1,054 Descending FlightAware ADS-B
Mon 05:56:47 PM 24.7210 -81.5330 232° Southwest 447 514 29,300 -900 Descending FlightAware ADS-B
Mon 05:57:25 PM 24.6740 -81.5970 231° Southwest 420 483 28,800 -904 Descending FlightAware ADS-B
Mon 05:58:00 PM 24.6330 -81.6550 232° Southwest 419 482 28,200 -1,059 Descending FlightAware ADS-B
Mon 05:58:33 PM 24.5910 -81.7110 230° Southwest 417 480 27,600 -1,015 Descending FlightAware ADS-B
Mon 05:59:05 PM 24.5540 -81.7620 231° Southwest 420 483 27,100 -930 Descending FlightAware ADS-B
Mon 05:59:44 PM 24.5090 -81.8240 231° Southwest 418 481 26,500 -1,014 Descending FlightAware ADS-B
Mon 06:00:16 PM 24.4670 -81.8820 232° Southwest 410 472 25,900 -1,059 Descending FlightAware ADS-B
Mon 06:00:52 PM 24.4250 -81.9400 232° Southwest 401 461 25,300 -1,054 Descending FlightAware ADS-B
Mon 06:01:30 PM 24.3790 -82.0020 231° Southwest 402 463 24,600 -1,029 Descending FlightAware ADS-B
Mon 06:02:02 PM 24.3430 -82.0520 232° Southwest 400 460 24,100 -1,013 Descending FlightAware ADS-B
Mon 06:02:47 PM 24.2890 -82.1260 231° Southwest 395 455 23,300 -977 Descending FlightAware ADS-B
Mon 06:03:28 PM 24.2420 -82.1910 232° Southwest 393 452 22,700 -450 Descending FlightAware ADS-B
Mon 06:04:07 PM 24.2040 -82.2430 231° Southwest 393 452 22,700 -472 Level FlightAware ADS-B
Mon 06:04:57 PM 24.1470 -82.3200 231° Southwest 382 440 22,000 -488 Descending FlightAware ADS-B
Mon 06:05:33 PM 24.1130 -82.3660 231° Southwest 382 440 22,000  Level FlightAware ADS-B
Mon 06:06:10 PM 24.0780 -82.4130 231° Southwest 382 440 22,000  Level FlightAware ADS-B
Mon 06:06:46 PM 24.0440 -82.4590 231° Southwest 382 440 22,000  Level FlightAware ADS-B
Mon 06:07:22 PM 24.0100 -82.5050 231° Southwest 382 440 22,000  Level FlightAware ADS-B
Mon 06:07:58 PM 23.9760 -82.5510 231° Southwest 382 440 22,000  Level FlightAware ADS-B
Mon 06:14:00 PM 23.2579 -82.4208 175° South  Level FlightAware Approximate
Mon 06:15:00 PM 23.1374 -82.4167 180° South  Level FlightAware Approximate
Mon 06:16:00 PM 23.0182 -82.4000 180° South  Level FlightAware Approximate
Mon 06:17:00 PM 22.9891 -82.4091 180° South  Level Estimated
Mon 06:18:00 PM 22.9891 -82.4091 180° South  Level Estimated
Mon 06:19:00 PM 22.9891 -82.4091 180° South  Level Estimated
Mon 06:20:00 PM 22.9891 -82.4091 180° South  Level Estimated
Mon 06:21:00 PM 22.9891 -82.4091 180° South  Level Estimated
Mon 06:22:00 PM 22.9891 -82.4091 180° South  Level Estimated
Mon 06:23:00 PM 22.9891 -82.4091 180° South  Level Estimated
Mon 06:24:00 PM 22.9891 -82.4091 180° South  Level Estimated
Mon 06:25:00 PM 22.9891 -82.4091 180° South  Level Estimated
Mon 06:26:00 PM 22.9891 -82.4091 180° South  Level Estimated
Mon 06:27:00 PM 22.9891 -82.4091 180° South  Level Estimated
Mon 06:28:00 PM 22.9891 -82.4091 180° South  Level Estimated
Mon 06:29:00 PM 22.9891 -82.4091 180° South  Level Estimated
Mon 06:30:00 PM 22.9891 -82.4091 180° South  Level Estimated
Mon 06:31:00 PM 22.9891 -82.4091 180° South  Level Estimated
Mon 06:32:00 PM 22.9891 -82.4091 180° South  Level Estimated
Mon 06:33:00 PM 22.9891 -82.4091 180° South  Level Estimated
Mon 06:34:00 PM 22.9891 -82.4091 180° South  Level Estimated
Mon 06:35:00 PM 22.9891 -82.4091 180° South  Level Estimated
Mon 06:36:00 PM 22.9891 -82.4091 180° South  Level Estimated

Login

Don't have an account? Register now (free) for customized features, flight alerts, and more!